KJ6MC Weather Reports


time (UTC)temp
F
wind
direction
speed
knots
gust
knots
rain 1hr
in
rain 24hr
in
rain mn
in
humidity
%
barometer
mb
20260902155008 63 135 0.0 1.7 0.00 0.00 0.00 78 1017.2
20260902154908 63 141 0.0 1.7 0.00 0.00 0.00 79 1017.2
20260902154810 63 141 0.0 1.7 0.00 0.00 0.00 79 1017.2
20260902154759 63 141 0.0 1.7 0.00 0.00 0.00 79 1017.2
20260902154706 63 141 0.0 1.7 0.00 0.00 0.00 79 1017.2
20260902154607 63 139 0.0 1.7 0.00 0.00 0.00 79 1017.2
20260902154523 62 131 0.9 2.6 0.00 0.00 0.00 80 1017.2
20260902154507 62 141 0.0 1.7 0.00 0.00 0.00 79 1017.2
20260902154418 62 168 0.0 2.6 0.00 0.00 0.00 79 1017.2
20260902154408 62 131 0.9 2.6 0.00 0.00 0.00 80 1017.2
20260902154203 62 146 0.9 3.5 0.00 0.00 0.00 80 1017.2
20260902154114 62 108 0.9 3.5 0.00 0.00 0.00 80 1017.1
20260902154108 62 147 0.9 3.5 0.00 0.00 0.00 80 1017.1
20260902153900 62 107 0.9 3.5 0.00 0.00 0.00 81 1017.1
20260902153806 62 108 0.9 3.5 0.00 0.00 0.00 81 1017.1
20260902153800 62 107 0.9 3.5 0.00 0.00 0.00 81 1017.1
20260902153700 62 108 1.7 3.5 0.00 0.00 0.00 81 1017.0
20260902153601 61 108 1.7 3.5 0.00 0.00 0.00 81 1017.0
20260902153500 61 112 0.9 3.5 0.00 0.00 0.00 81 1017.0
20260902153403 61 106 0.9 3.5 0.00 0.00 0.00 81 1017.0
20260902153354 59 86 0.9 2.6 0.00 0.00 0.00 84 1017.0
20260902153348 60 115 0.9 3.5 0.00 0.00 0.00 83 1017.0
20260902153344 60 96 0.9 3.5 0.00 0.00 0.00 83 1016.9
20260902153338 61 120 0.9 3.5 0.00 0.00 0.00 81 1017.0
20260902153332 61 102 0.9 3.5 0.00 0.00 0.00 81 1017.0
20260902153324 61 117 0.9 3.5 0.00 0.00 0.00 81 1017.0
20260902153315 61 108 0.9 3.5 0.00 0.00 0.00 81 1017.0
20260902153307 61 115 0.9 3.5 0.00 0.00 0.00 82 1017.0
20260902153258 61 115 0.9 3.5 0.00 0.00 0.00 82 1017.0
20260902153248 61 101 0.9 2.6 0.00 0.00 0.00 82 1017.0
20260902153242 61 107 0.9 2.6 0.00 0.00 0.00 82 1017.0
20260902153234 61 110 0.9 1.7 0.00 0.00 0.00 82 1017.0
20260902153225 61 110 0.9 1.7 0.00 0.00 0.00 83 1017.0
20260902153204 60 110 0.9 1.7 0.00 0.00 0.00 83 1017.0
20260902153156 60 110 0.9 2.6 0.00 0.00 0.00 83 1017.0
20260902153140 60 110 0.9 2.6 0.00 0.00 0.00 83 1017.0
20260902153132 60 119 0.9 2.6 0.00 0.00 0.00 83 1017.0
20260902153123 60 118 1.7 2.6 0.00 0.00 0.00 83 1017.0
20260902153115 60 119 1.7 2.6 0.00 0.00 0.00 83 1017.0
20260902153106 60 118 1.7 3.5 0.00 0.00 0.00 83 1017.0
20260902152949 60 115 0.9 3.5 0.00 0.00 0.00 83 1017.0
20260902152832 60 122 0.9 3.5 0.00 0.00 0.00 83 1016.9
20260902152817 60 127 0.9 3.5 0.00 0.00 0.00 83 1016.9
20260902152809 60 115 0.9 3.5 0.00 0.00 0.00 83 1016.9
20260902152753 60 107 0.9 3.5 0.00 0.00 0.00 83 1016.9
20260902152745 60 125 0.9 3.5 0.00 0.00 0.00 83 1016.8
20260902151058 60 104 0.9 3.5 0.00 0.00 0.00 83 1016.9
20260902151022 59 88 0.9 2.6 0.00 0.00 0.00 84 1017.0
20260902151018 60 110 0.9 3.5 0.00 0.00 0.00 83 1016.9
20260902151010 60 113 0.9 2.6 0.00 0.00 0.00 83 1016.9
20260902150652 59 105 0.9 2.6 0.00 0.00 0.00 83 1016.9
20260902150553 59 104 0.9 2.6 0.00 0.00 0.00 84 1017.0
20260902150452 59 132 0.9 2.6 0.00 0.00 0.00 84 1016.9
20260902150356 59 106 0.0 1.7 0.00 0.00 0.00 84 1016.7
20260902150352 59 132 0.9 2.6 0.00 0.00 0.00 84 1016.9
20260902150257 59 105 0.9 2.6 0.00 0.00 0.00 84 1016.8
20260902150250 59 129 0.9 2.6 0.00 0.00 0.00 84 1016.8
20260902150231 59 120 0.9 2.6 0.00 0.00 0.00 84 1016.8
20260902150049 59 105 0.0 1.7 0.00 0.00 0.00 84 1016.8
20260902150036 57 84 0.0 1.7 0.00 0.00 0.00 87 1016.5
20260902150032 57 110 0.0 1.7 0.00 0.00 0.00 87 1016.4
20260902150026 58 110 1.7 3.5 0.00 0.00 0.00 85 1016.4
20260902150018 59 160 0.0 1.7 0.00 0.00 0.00 84 1016.8
20260902150009 59 110 0.0 1.7 0.00 0.00 0.00 84 1016.8
20260902150002 59 106 0.0 1.7 0.00 0.00 0.00 84 1016.7
20260902145848 59 102 0.0 1.7 0.00 0.00 0.00 84 1016.7
20260902145734 59 113 0.9 1.7 0.00 0.00 0.00 85 1016.8
20260902145729 59 113 0.9 2.6 0.00 0.00 0.00 85 1016.7
20260902145724 59 102 0.0 1.7 0.00 0.00 0.00 84 1016.8
20260902145603 59 113 0.9 2.6 0.00 0.00 0.00 85 1016.7
20260902145414 59 113 0.9 2.6 0.00 0.00 0.00 85 1016.7
20260902145250 59 110 0.9 2.6 0.00 0.00 0.00 85 1016.7
20260902145246 59 113 0.9 2.6 0.00 0.00 0.00 85 1016.7
20260902145238 59 113 0.9 2.6 0.00 0.00 0.00 85 1016.7
20260902145229 59 113 0.9 2.6 0.00 0.00 0.00 85 1016.7
20260902145221 59 100 0.9 2.6 0.00 0.00 0.00 85 1016.7
20260902145212 59 110 0.9 2.6 0.00 0.00 0.00 85 1016.7
20260902145202 59 110 0.9 2.6 0.00 0.00 0.00 85 1016.7
20260902145046 59 109 0.9 2.6 0.00 0.00 0.00 85 1016.7
20260902144617 58 108 0.0 1.7 0.00 0.00 0.00 86 1016.5
20260902144609 58 108 0.9 2.6 0.00 0.00 0.00 85 1016.7
20260902144449 58 102 0.9 1.7 0.00 0.00 0.00 85 1016.7
20260902144336 58 100 0.9 1.7 0.00 0.00 0.00 85 1016.7
20260902144327 58 110 1.7 3.5 0.00 0.00 0.00 86 1016.4
20260902144320 58 108 0.9 1.7 0.00 0.00 0.00 85 1016.7
20260902144314 58 107 0.9 1.7 0.00 0.00 0.00 85 1016.7
20260902144305 58 107 0.9 1.7 0.00 0.00 0.00 85 1016.7
20260902144257 58 107 0.0 1.7 0.00 0.00 0.00 85 1016.6
20260902144249 58 120 0.0 1.7 0.00 0.00 0.00 85 1016.6
20260902144240 58 120 0.0 1.7 0.00 0.00 0.00 85 1016.6
20260902143812 57 84 0.0 0.9 0.00 0.00 0.00 86 1016.5
20260902143759 58 120 0.0 1.7 0.00 0.00 0.00 85 1016.5
20260902143646 58 120 0.0 1.7 0.00 0.00 0.00 85 1016.6
20260902143637 58 120 0.0 1.7 0.00 0.00 0.00 85 1016.5
20260902143625 58 120 0.0 1.7 0.00 0.00 0.00 85 1016.5
20260902143616 58 129 0.0 1.7 0.00 0.00 0.00 85 1016.6
20260902143544 58 129 0.9 1.7 0.00 0.00 0.00 85 1016.5
20260902143536 58 129 0.9 2.6 0.00 0.00 0.00 85 1016.5
20260902143527 58 129 0.9 2.6 0.00 0.00 0.00 85 1016.5
20260902143519 58 129 0.9 3.5 0.00 0.00 0.00 85 1016.5
20260902143510 58 96 0.9 3.5 0.00 0.00 0.00 85 1016.5
20260902143454 58 96 1.7 3.5 0.00 0.00 0.00 86 1016.5
20260902143446 58 103 1.7 3.5 0.00 0.00 0.00 85 1016.5
20260902143437 58 102 1.7 3.5 0.00 0.00 0.00 85 1016.5
20260902143424 58 110 1.7 3.5 0.00 0.00 0.00 85 1016.4
20260902143416 58 109 1.7 3.5 0.00 0.00 0.00 85 1016.4
20260902143300 58 110 1.7 3.5 0.00 0.00 0.00 85 1016.4
20260902143251 58 108 1.7 3.5 0.00 0.00 0.00 85 1016.4
20260902143246 58 110 1.7 3.5 0.00 0.00 0.00 86 1016.4
20260902143154 58 105 1.7 2.6 0.00 0.00 0.00 86 1016.4
20260902143145 58 103 1.7 2.6 0.00 0.00 0.00 86 1016.4
20260902143135 58 112 0.9 2.6 0.00 0.00 0.00 86 1016.4
20260902143129 58 102 0.9 2.6 0.00 0.00 0.00 86 1016.4
20260902143121 58 103 0.9 2.6 0.00 0.00 0.00 86 1016.5
20260902143112 58 131 0.9 2.6 0.00 0.00 0.00 86 1016.5
20260902143050 58 101 0.9 2.6 0.00 0.00 0.00 86 1016.5
20260902143038 58 111 0.9 1.7 0.00 0.00 0.00 86 1016.5
20260902141435 57 115 0.0 1.7 0.00 0.00 0.00 86 1016.5
20260902141426 57 79 0.0 1.7 0.00 0.00 0.00 86 1016.5
20260902141418 57 81 0.0 1.7 0.00 0.00 0.00 86 1016.5
20260902141409 57 64 0.0 1.7 0.00 0.00 0.00 86 1016.6
20260902141401 57 84 0.0 0.9 0.00 0.00 0.00 86 1016.5
20260902141245 57 85 0.0 0.9 0.00 0.00 0.00 86 1016.5
20260902141237 57 85 0.0 1.7 0.00 0.00 0.00 86 1016.5
20260902141228 57 117 0.0 1.7 0.00 0.00 0.00 86 1016.5
20260902141216 57 117 0.0 1.7 0.00 0.00 0.00 86 1016.5
20260902141208 57 117 0.0 1.7 0.00 0.00 0.00 86 1016.5
20260902141158 57 117 0.0 1.7 0.00 0.00 0.00 86 1016.5
20260902141152 57 117 0.0 1.7 0.00 0.00 0.00 87 1016.5
20260902141143 57 119 0.0 1.7 0.00 0.00 0.00 87 1016.5
20260902141135 57 118 0.0 1.7 0.00 0.00 0.00 87 1016.5
20260902141126 57 89 0.0 1.7 0.00 0.00 0.00 87 1016.5
20260902141117 57 84 0.0 1.7 0.00 0.00 0.00 87 1016.5
20260902135724 57 83 0.0 1.7 0.00 0.00 0.00 87 1016.5
20260902135622 57 110 0.0 0.9 0.00 0.00 0.00 87 1016.5
20260902135614 57 110 0.0 0.9 0.00 0.00 0.00 87 1016.4
20260902135422 57 110 0.0 0.9 0.00 0.00 0.00 87 1016.4
20260902135358 57 110 0.0 0.9 0.00 0.00 0.00 87 1016.4
20260902135347 57 110 0.0 0.9 0.00 0.00 0.00 87 1016.4
20260902135220 57 110 0.0 0.9 0.00 0.00 0.00 87 1016.4
20260902135127 57 110 0.0 0.9 0.00 0.00 0.00 87 1016.4
20260902135014 57 110 0.0 0.9 0.00 0.00 0.00 87 1016.4
20260902134914 57 110 0.0 0.9 0.00 0.00 0.00 87 1016.5
20260902134814 57 110 0.0 1.7 0.00 0.00 0.00 87 1016.4
20260902134805 57 110 0.0 1.7 0.00 0.00 0.00 87 1016.4
20260902134714 57 110 0.0 1.7 0.00 0.00 0.00 87 1016.4
20260902134616 57 110 0.0 1.7 0.00 0.00 0.00 87 1016.4
20260902134514 57 110 0.0 1.7 0.00 0.00 0.00 87 1016.4
20260902134414 57 110 0.0 1.7 0.00 0.00 0.00 87 1016.4
20260902134314 57 110 0.0 1.7 0.00 0.00 0.00 87 1016.4
20260902134251 57 110 0.0 1.7 0.00 0.00 0.00 87 1016.4
20260902134214 57 110 0.0 1.7 0.00 0.00 0.00 87 1016.3
20260902134115 57 110 0.0 1.7 0.00 0.00 0.00 87 1016.3
20260902134014 57 110 0.0 1.7 0.00 0.00 0.00 87 1016.2
20260902133914 57 110 0.0 1.7 0.00 0.00 0.00 87 1016.2
20260902133807 57 110 0.0 0.9 0.00 0.00 0.00 87 1016.3
20260902133752 57 110 0.0 0.9 0.00 0.00 0.00 87 1016.3
20260902133709 57 110 0.0 0.9 0.00 0.00 0.00 87 1016.3
20260902133609 57 110 0.0 0.9 0.00 0.00 0.00 87 1016.3
20260902133508 57 110 0.0 0.9 0.00 0.00 0.00 87 1016.3
20260902133409 57 110 0.0 0.9 0.00 0.00 0.00 87 1016.2
20260902133308 57 110 0.0 0.9 0.00 0.00 0.00 87 1016.2
20260902133249 57 110 0.0 0.9 0.00 0.00 0.00 87 1016.2
20260902133208 57 110 0.0 0.9 0.00 0.00 0.00 87 1016.2
20260902133109 57 110 0.0 0.9 0.00 0.00 0.00 87 1016.2
20260902133009 57 110 0.0 0.9 0.00 0.00 0.00 87 1016.2
20260902132908 57 110 0.0 0.9 0.00 0.00 0.00 87 1016.2
20260902132808 57 110 0.0 0.9 0.00 0.00 0.00 87 1016.2
20260902132749 57 110 0.0 0.9 0.00 0.00 0.00 87 1016.2
20260902132709 57 110 0.0 0.9 0.00 0.00 0.00 87 1016.2
20260902132607 57 110 0.0 1.7 0.00 0.00 0.00 87 1016.1
20260902132506 57 110 0.0 1.7 0.00 0.00 0.00 87 1016.1
20260902132406 57 110 0.0 1.7 0.00 0.00 0.00 86 1016.1
20260902132250 57 110 0.0 1.7 0.00 0.00 0.00 86 1016.0
20260902132203 57 110 0.0 1.7 0.00 0.00 0.00 87 1016.0
20260902132058 57 110 0.0 1.7 0.00 0.00 0.00 87 1016.0
20260902131957 57 110 0.0 1.7 0.00 0.00 0.00 86 1016.0
20260902131856 57 110 0.0 1.7 0.00 0.00 0.00 86 1016.0
20260902131802 57 110 0.0 1.7 0.00 0.00 0.00 86 1016.0
20260902131657 57 105 0.0 1.7 0.00 0.00 0.00 86 1016.0
20260902131557 57 105 0.0 1.7 0.00 0.00 0.00 86 1016.0
20260902131456 57 114 0.0 1.7 0.00 0.00 0.00 86 1016.0
20260902131357 57 114 0.0 1.7 0.00 0.00 0.00 86 1015.9
20260902131300 57 114 0.0 1.7 0.00 0.00 0.00 86 1015.9
20260902131250 57 115 0.0 1.7 0.00 0.00 0.00 86 1015.9
20260902131156 57 114 0.0 0.9 0.00 0.00 0.00 86 1016.0
20260902131057 57 110 0.0 0.9 0.00 0.00 0.00 86 1015.9
20260902130956 57 110 0.0 0.9 0.00 0.00 0.00 86 1015.9
20260902130856 57 110 0.0 0.9 0.00 0.00 0.00 86 1015.9
20260902130750 57 79 0.0 0.9 0.00 0.00 0.00 86 1015.9
20260902130656 57 79 0.0 0.9 0.00 0.00 0.00 86 1016.0
20260902130558 57 75 0.0 0.9 0.00 0.00 0.00 86 1016.0
20260902130456 57 75 0.0 0.9 0.00 0.00 0.00 87 1016.0
20260902130356 57 75 0.0 0.9 0.00 0.00 0.00 87 1016.0
20260902130247 57 75 0.0 0.9 0.00 0.00 0.00 87 1016.0
20260902130232 57 94 0.0 0.9 0.00 0.00 0.00 87 1015.9
20260902130154 57 75 0.0 0.9 0.00 0.00 0.00 87 1016.0
20260902130115 57 75 0.0 0.9 0.00 0.00 0.00 87 1016.0
20260902125954 57 75 0.0 0.9 0.00 0.00 0.00 87 1015.9
20260902125906 57 93 0.0 0.9 0.00 0.00 0.00 87 1015.9
20260902125857 57 93 0.0 0.9 0.00 0.00 0.00 87 1015.9
20260902125654 57 93 0.0 0.9 0.00 0.00 0.00 87 1015.9
20260902125555 57 94 0.0 0.9 0.00 0.00 0.00 87 1015.9
20260902125454 57 94 0.0 0.9 0.00 0.00 0.00 87 1015.9
20260902125355 57 94 0.0 1.7 0.00 0.00 0.00 86 1015.9
20260902125254 57 93 0.9 1.7 0.00 0.00 0.00 86 1015.9
20260902125243 57 94 0.9 1.7 0.00 0.00 0.00 86 1015.9
20260902125154 57 93 0.9 1.7 0.00 0.00 0.00 86 1015.8
20260902125055 57 94 0.9 1.7 0.00 0.00 0.00 86 1015.9
20260902124954 57 93 0.9 1.7 0.00 0.00 0.00 86 1015.9
20260902124855 57 93 0.9 1.7 0.00 0.00 0.00 86 1015.9
20260902124743 57 89 0.9 1.7 0.00 0.00 0.00 86 1015.9
20260902124652 57 68 0.0 1.7 0.00 0.00 0.00 87 1015.9
20260902124553 57 68 0.0 1.7 0.00 0.00 0.00 87 1015.9
20260902124451 57 68 0.0 1.7 0.00 0.00 0.00 87 1015.9
20260902124350 58 77 0.0 1.7 0.00 0.00 0.00 87 1015.9
20260902124241 58 57 0.0 1.7 0.00 0.00 0.00 87 1015.9
20260902124150 58 116 0.0 0.9 0.00 0.00 0.00 87 1015.9
20260902124051 58 116 0.0 0.9 0.00 0.00 0.00 87 1015.9
20260902123950 58 115 0.0 0.9 0.00 0.00 0.00 87 1015.9
20260902123848 58 116 0.0 0.9 0.00 0.00 0.00 87 1015.9
20260902123741 58 116 0.0 0.9 0.00 0.00 0.00 87 1015.9
20260902123649 58 116 0.0 1.7 0.00 0.00 0.00 87 1016.0
20260902123553 58 115 0.9 3.5 0.00 0.00 0.00 86 1016.0
20260902123451 58 115 0.9 3.5 0.00 0.00 0.00 86 1016.0
20260902123348 58 116 0.9 3.5 0.00 0.00 0.00 86 1016.0
20260902123242 58 115 0.9 3.5 0.00 0.00 0.00 86 1016.0
20260902123148 58 116 0.9 3.5 0.00 0.00 0.00 86 1016.0
20260902123052 58 116 0.9 3.5 0.00 0.00 0.00 86 1016.0
20260902122948 58 115 0.9 3.5 0.00 0.00 0.00 87 1016.0
20260902122848 58 116 0.9 3.5 0.00 0.00 0.00 87 1015.9
20260902122752 58 113 0.9 3.5 0.00 0.00 0.00 87 1016.0
20260902122742 58 106 0.9 3.5 0.00 0.00 0.00 87 1016.0
20260902122649 58 103 0.9 3.5 0.00 0.00 0.00 87 1015.9
20260902122545 58 78 0.9 3.5 0.00 0.00 0.00 87 1015.9
20260902122445 58 101 0.0 3.5 0.00 0.00 0.00 87 1016.0
20260902122344 58 104 0.0 3.5 0.00 0.00 0.00 87 1016.0
20260902122245 58 132 0.0 0.9 0.00 0.00 0.00 87 1015.9
20260902122144 58 103 0.0 0.9 0.00 0.00 0.00 87 1015.9
20260902122042 58 103 0.0 0.9 0.00 0.00 0.00 87 1015.9
20260902121942 58 103 0.0 0.9 0.00 0.00 0.00 87 1016.0
20260902121842 58 103 0.0 0.9 0.00 0.00 0.00 87 1015.9
20260902121744 58 103 0.0 0.9 0.00 0.00 0.00 87 1015.9
20260902121643 58 103 0.0 0.9 0.00 0.00 0.00 87 1015.9
20260902121543 58 103 0.0 0.9 0.00 0.00 0.00 87 1015.9
20260902121443 58 103 0.0 0.9 0.00 0.00 0.00 87 1015.9
20260902121342 58 103 0.0 0.9 0.00 0.00 0.00 87 1015.9
20260902121237 58 103 0.0 0.9 0.00 0.00 0.00 87 1015.9
20260902121142 58 103 0.0 0.9 0.00 0.00 0.00 87 1015.9
20260902121042 58 103 0.0 0.9 0.00 0.00 0.00 87 1015.9
20260902121005 58 103 0.0 0.9 0.00 0.00 0.00 87 1015.9
20260902120942 58 103 0.0 0.9 0.00 0.00 0.00 87 1015.9
20260902120858 58 103 0.0 0.9 0.00 0.00 0.00 87 1015.9
20260902120848 58 103 0.0 0.9 0.00 0.00 0.00 87 1015.9
20260902120640 58 103 0.0 0.9 0.00 0.00 0.00 87 1015.8
20260902120539 58 103 0.0 0.9 0.00 0.00 0.00 87 1015.8
20260902120438 58 103 0.0 0.9 0.00 0.00 0.00 87 1015.8
20260902120338 58 103 0.0 0.9 0.00 0.00 0.00 87 1015.9
20260902120239 58 103 0.0 0.9 0.00 0.00 0.00 87 1015.9
20260902120138 58 103 0.0 0.9 0.00 0.00 0.00 87 1015.9
20260902120038 58 103 0.0 0.9 0.00 0.00 0.00 87 1015.9
20260902115938 58 103 0.0 0.9 0.00 0.00 0.00 87 1015.9
20260902115838 58 103 0.0 0.9 0.00 0.00 0.00 87 1015.8
20260902115733 58 103 0.0 0.9 0.00 0.00 0.00 86 1015.8
20260902115638 58 103 0.0 0.9 0.00 0.00 0.00 86 1015.8
20260902115536 58 103 0.0 0.9 0.00 0.00 0.00 86 1015.8
20260902115504 58 103 0.0 1.7 0.00 0.00 0.00 86 1015.8
20260902115436 58 103 0.0 0.9 0.00 0.00 0.00 86 1015.8
20260902115348 58 103 0.0 1.7 0.00 0.00 0.00 86 1015.7
20260902115339 58 103 0.0 1.7 0.00 0.00 0.00 86 1015.8
20260902115136 58 103 0.0 1.7 0.00 0.00 0.00 86 1015.8
20260902115036 58 103 0.0 1.7 0.00 0.00 0.00 86 1015.8
20260902114936 58 103 0.0 1.7 0.00 0.00 0.00 86 1015.8
20260902114836 58 103 0.0 1.7 0.00 0.00 0.00 86 1015.8
20260902114729 58 103 0.0 1.7 0.00 0.00 0.00 86 1015.8
20260902114634 58 103 0.0 1.7 0.00 0.00 0.00 86 1015.8
20260902114534 58 103 0.0 1.7 0.00 0.00 0.00 86 1015.8
20260902114452 58 110 0.0 1.7 0.00 0.00 0.00 86 1015.9
20260902114434 58 103 0.0 1.7 0.00 0.00 0.00 86 1015.8
20260902114348 58 103 0.0 1.7 0.00 0.00 0.00 86 1015.8
20260902114338 58 110 0.0 1.7 0.00 0.00 0.00 86 1015.9
20260902114130 58 110 0.0 1.7 0.00 0.00 0.00 86 1015.9
20260902114030 58 110 0.0 1.7 0.00 0.00 0.00 86 1015.9
20260902113930 58 110 0.0 1.7 0.00 0.00 0.00 86 1015.8
20260902113831 58 110 0.0 1.7 0.00 0.00 0.00 86 1015.8
20260902113726 58 110 0.0 1.7 0.00 0.00 0.00 86 1015.9
20260902113626 58 110 0.0 1.7 0.00 0.00 0.00 86 1015.9
20260902113526 58 110 0.0 0.9 0.00 0.00 0.00 86 1015.9
20260902113424 58 110 0.0 1.7 0.00 0.00 0.00 86 1015.9
20260902113322 58 110 0.0 2.6 0.00 0.00 0.00 86 1015.9
20260902113222 58 149 0.0 2.6 0.00 0.00 0.00 86 1015.9
20260902113122 58 150 0.0 2.6 0.00 0.00 0.00 86 1015.8
20260902113023 58 150 0.0 2.6 0.00 0.00 0.00 85 1015.8
20260902112922 58 150 0.0 2.6 0.00 0.00 0.00 85 1015.8
20260902112822 58 133 0.0 2.6 0.00 0.00 0.00 85 1015.8
20260902112741 58 133 0.0 2.6 0.00 0.00 0.00 85 1015.8
20260902112721 58 132 0.0 2.6 0.00 0.00 0.00 85 1015.8
20260902112620 58 132 0.0 2.6 0.00 0.00 0.00 85 1015.8
20260902112520 58 132 0.0 2.6 0.00 0.00 0.00 85 1015.8
20260902112420 58 134 0.0 2.6 0.00 0.00 0.00 85 1015.8
20260902112320 58 141 0.0 1.7 0.00 0.00 0.00 85 1015.8
20260902112220 58 141 0.0 1.7 0.00 0.00 0.00 85 1015.8
20260902112118 58 141 0.9 2.6 0.00 0.00 0.00 85 1015.8
20260902112014 58 141 0.9 2.6 0.00 0.00 0.00 85 1015.8
20260902111913 58 141 0.9 2.6 0.00 0.00 0.00 85 1015.8
20260902111812 58 141 0.9 2.6 0.00 0.00 0.00 85 1015.8
20260902111727 59 141 0.9 2.6 0.00 0.00 0.00 85 1015.8
20260902111712 59 141 0.9 2.6 0.00 0.00 0.00 85 1015.7
20260902111612 59 141 0.9 2.6 0.00 0.00 0.00 85 1015.8
20260902111512 59 141 0.9 2.6 0.00 0.00 0.00 85 1015.7
20260902111426 59 146 0.9 2.6 0.00 0.00 0.00 85 1015.8
20260902111312 58 145 0.9 2.6 0.00 0.00 0.00 85 1015.7
20260902111227 58 127 0.9 2.6 0.00 0.00 0.00 85 1015.7
20260902111212 58 155 0.9 2.6 0.00 0.00 0.00 85 1015.7
20260902111113 58 166 0.9 2.6 0.00 0.00 0.00 85 1015.7
20260902111012 58 144 0.9 1.7 0.00 0.00 0.00 85 1015.7
20260902110952 58 138 0.9 1.7 0.00 0.00 0.00 85 1015.7
20260902110912 58 139 0.9 1.7 0.00 0.00 0.00 85 1015.7
20260902110839 58 138 0.9 1.7 0.00 0.00 0.00 85 1015.7
20260902110711 58 138 0.9 1.7 0.00 0.00 0.00 85 1015.7
20260902110610 58 138 0.9 1.7 0.00 0.00 0.00 85 1015.8
20260902110510 58 139 0.9 1.7 0.00 0.00 0.00 85 1015.8
20260902110411 58 138 0.9 1.7 0.00 0.00 0.00 85 1015.8
20260902110310 58 129 0.9 1.7 0.00 0.00 0.00 85 1015.8
20260902110238 58 128 0.9 1.7 0.00 0.00 0.00 85 1015.8
20260902110208 58 129 0.9 1.7 0.00 0.00 0.00 85 1015.8
20260902110108 58 129 0.9 1.7 0.00 0.00 0.00 85 1015.8
20260902110008 58 139 0.9 1.7 0.00 0.00 0.00 85 1015.9
20260902105906 58 131 0.9 1.7 0.00 0.00 0.00 85 1015.9
20260902105806 58 129 0.9 1.7 0.00 0.00 0.00 85 1015.9
20260902105721 58 132 0.9 1.7 0.00 0.00 0.00 85 1015.9
20260902105706 58 124 0.9 1.7 0.00 0.00 0.00 85 1015.9
20260902105606 58 137 0.9 1.7 0.00 0.00 0.00 85 1015.9
20260902105506 58 138 0.9 1.7 0.00 0.00 0.00 85 1016.0
20260902105444 58 129 0.0 1.7 0.00 0.00 0.00 85 1016.0
20260902105406 58 148 0.9 1.7 0.00 0.00 0.00 85 1016.0
20260902105330 58 148 0.0 1.7 0.00 0.00 0.00 85 1016.0
20260902105205 58 129 0.0 1.7 0.00 0.00 0.00 85 1016.1
20260902105106 58 129 0.0 1.7 0.00 0.00 0.00 85 1016.0
20260902105006 58 124 0.0 1.7 0.00 0.00 0.00 85 1016.1
20260902104906 58 129 0.0 1.7 0.00 0.00 0.00 85 1016.1
20260902104806 58 158 0.0 0.9 0.00 0.00 0.00 85 1016.1
20260902104706 58 158 0.0 0.9 0.00 0.00 0.00 85 1016.1
20260902104607 58 158 0.0 0.9 0.00 0.00 0.00 86 1016.1
20260902104505 58 158 0.0 0.9 0.00 0.00 0.00 85 1016.1
20260902104404 58 132 0.0 1.7 0.00 0.00 0.00 85 1016.0
20260902104304 58 132 0.0 1.7 0.00 0.00 0.00 85 1016.0
20260902104220 58 133 0.0 1.7 0.00 0.00 0.00 85 1016.0
20260902104204 58 132 0.0 1.7 0.00 0.00 0.00 85 1016.0
20260902104102 58 132 0.0 1.7 0.00 0.00 0.00 85 1016.0
20260902104003 58 110 0.0 1.7 0.00 0.00 0.00 85 1016.0
20260902103943 58 110 0.0 1.7 0.00 0.00 0.00 85 1016.0
20260902103902 58 110 0.0 1.7 0.00 0.00 0.00 85 1016.0
20260902103832 58 110 0.0 1.7 0.00 0.00 0.00 85 1016.0
20260902103701 58 110 0.9 1.7 0.00 0.00 0.00 85 1016.0
20260902103602 58 110 0.9 1.7 0.00 0.00 0.00 85 1016.0
20260902103503 58 110 0.9 2.6 0.00 0.00 0.00 85 1016.0
20260902103445 58 212 0.9 2.6 0.00 0.00 0.00 85 1016.0
20260902103402 58 212 0.9 2.6 0.00 0.00 0.00 85 1016.0
20260902103330 58 212 0.9 2.6 0.00 0.00 0.00 85 1016.0
20260902103200 58 212 0.9 2.6 0.00 0.00 0.00 85 1016.0
20260902103100 58 193 0.9 2.6 0.00 0.00 0.00 85 1016.1
20260902103001 58 193 0.9 2.6 0.00 0.00 0.00 85 1016.1
20260902102900 58 124 0.9 2.6 0.00 0.00 0.00 85 1016.1
20260902102758 58 124 0.9 2.6 0.00 0.00 0.00 85 1016.1
20260902102719 58 127 0.9 2.6 0.00 0.00 0.00 85 1016.1
20260902102656 58 116 0.9 2.6 0.00 0.00 0.00 85 1016.1
20260902102557 58 155 0.9 2.6 0.00 0.00 0.00 85 1016.1
20260902102503 58 133 0.9 2.6 0.00 0.00 0.00 85 1016.1
20260902102357 58 136 0.9 2.6 0.00 0.00 0.00 85 1016.1
20260902102257 58 134 0.9 2.6 0.00 0.00 0.00 85 1016.1
20260902102218 58 139 0.9 1.7 0.00 0.00 0.00 85 1016.1
20260902102156 58 138 0.9 1.7 0.00 0.00 0.00 85 1016.1
20260902102056 58 139 0.0 1.7 0.00 0.00 0.00 85 1016.1
20260902101956 58 141 0.0 1.7 0.00 0.00 0.00 85 1016.2
20260902101856 58 141 0.0 1.7 0.00 0.00 0.00 85 1016.2
20260902101756 58 136 0.0 0.9 0.00 0.00 0.00 85 1016.2
20260902101718 58 136 0.0 0.9 0.00 0.00 0.00 85 1016.2
20260902101656 58 136 0.0 0.9 0.00 0.00 0.00 85 1016.2
20260902101557 58 136 0.0 0.9 0.00 0.00 0.00 85 1016.3
20260902101456 58 136 0.0 0.9 0.00 0.00 0.00 85 1016.2
20260902101356 58 137 0.0 1.7 0.00 0.00 0.00 85 1016.3
20260902101256 58 136 0.0 1.7 0.00 0.00 0.00 85 1016.3
20260902101215 58 137 0.0 1.7 0.00 0.00 0.00 85 1016.3
20260902101154 58 121 0.0 1.7 0.00 0.00 0.00 85 1016.3
20260902101053 58 117 0.0 1.7 0.00 0.00 0.00 85 1016.3
20260902100953 58 115 0.0 1.7 0.00 0.00 0.00 85 1016.3
20260902100852 58 103 0.0 1.7 0.00 0.00 0.00 85 1016.3
20260902100752 58 103 0.0 1.7 0.00 0.00 0.00 85 1016.3
20260902100713 58 103 0.0 1.7 0.00 0.00 0.00 85 1016.3
20260902100652 58 103 0.0 1.7 0.00 0.00 0.00 85 1016.3
20260902100553 58 103 0.0 1.7 0.00 0.00 0.00 85 1016.3
20260902100451 58 103 0.0 1.7 0.00 0.00 0.00 85 1016.3
20260902100352 58 101 0.0 1.7 0.00 0.00 0.00 85 1016.3
20260902100252 58 100 0.0 1.7 0.00 0.00 0.00 85 1016.3
20260902100208 58 115 0.0 0.9 0.00 0.00 0.00 85 1016.3
20260902100150 58 127 0.0 0.9 0.00 0.00 0.00 85 1016.3
20260902100051 58 127 0.0 0.9 0.00 0.00 0.00 85 1016.3
20260902095950 58 127 0.9 0.9 0.00 0.00 0.00 85 1016.3
20260902095851 58 127 0.9 1.7 0.00 0.00 0.00 86 1016.3
20260902095708 58 127 0.9 1.7 0.00 0.00 0.00 86 1016.3
20260902095648 58 127 0.9 1.7 0.00 0.00 0.00 86 1016.3
20260902095549 58 127 0.9 1.7 0.00 0.00 0.00 86 1016.3
20260902095448 58 127 0.9 1.7 0.00 0.00 0.00 86 1016.3
20260902095429 58 127 0.9 1.7 0.00 0.00 0.00 86 1016.3
20260902095349 58 127 0.9 1.7 0.00 0.00 0.00 86 1016.3
20260902095319 58 127 0.9 1.7 0.00 0.00 0.00 86 1016.3
20260902095148 58 127 0.9 1.7 0.00 0.00 0.00 86 1016.3
20260902095049 58 124 0.0 1.7 0.00 0.00 0.00 86 1016.3
20260902094948 58 124 0.0 1.7 0.00 0.00 0.00 86 1016.3
20260902094848 58 124 0.0 1.7 0.00 0.00 0.00 86 1016.2
20260902094746 58 124 0.0 1.7 0.00 0.00 0.00 86 1016.3
20260902094720 58 124 0.0 1.7 0.00 0.00 0.00 86 1016.2
20260902094646 58 124 0.0 0.9 0.00 0.00 0.00 86 1016.2
20260902094547 58 134 0.0 0.9 0.00 0.00 0.00 86 1016.2
20260902094444 58 134 0.0 0.9 0.00 0.00 0.00 86 1016.2
20260902094344 58 134 0.0 0.9 0.00 0.00 0.00 86 1016.2
20260902094244 58 134 0.0 1.7 0.00 0.00 0.00 86 1016.2
20260902094206 58 134 0.0 1.7 0.00 0.00 0.00 86 1016.2
20260902094144 58 134 0.0 1.7 0.00 0.00 0.00 86 1016.2
20260902094042 58 134 0.0 1.7 0.00 0.00 0.00 86 1016.2
20260902093942 58 134 0.9 2.6 0.00 0.00 0.00 86 1016.2
20260902093843 58 134 0.9 3.5 0.00 0.00 0.00 86 1016.2
20260902093740 58 134 0.9 3.5 0.00 0.00 0.00 86 1016.2
20260902093706 58 134 0.9 3.5 0.00 0.00 0.00 86 1016.3
20260902093638 58 136 0.9 3.5 0.00 0.00 0.00 86 1016.3
20260902093538 58 136 0.9 3.5 0.00 0.00 0.00 86 1016.3
20260902093440 58 135 0.9 3.5 0.00 0.00 0.00 86 1016.3
20260902093333 58 136 0.9 3.5 0.00 0.00 0.00 86 1016.3
20260902093234 58 138 0.9 3.5 0.00 0.00 0.00 86 1016.3
20260902093204 58 139 0.9 3.5 0.00 0.00 0.00 86 1016.3
20260902093135 58 138 0.9 3.5 0.00 0.00 0.00 86 1016.3
20260902093032 58 139 0.9 3.5 0.00 0.00 0.00 86 1016.3
20260902092932 58 131 0.9 3.5 0.00 0.00 0.00 85 1016.3
20260902092832 58 137 0.9 3.5 0.00 0.00 0.00 85 1016.3
20260902092730 58 130 0.9 3.5 0.00 0.00 0.00 85 1016.3
20260902092701 58 129 0.0 3.5 0.00 0.00 0.00 85 1016.3
20260902092630 58 149 0.0 3.5 0.00 0.00 0.00 85 1016.3
20260902092530 58 99 0.9 3.5 0.00 0.00 0.00 85 1016.3
20260902092434 58 99 0.9 3.5 0.00 0.00 0.00 85 1016.3
20260902092331 58 113 0.0 3.5 0.00 0.00 0.00 85 1016.3
20260902092228 58 97 0.0 1.7 0.00 0.00 0.00 85 1016.3
20260902092201 58 115 0.0 1.7 0.00 0.00 0.00 85 1016.3
20260902092128 58 115 0.0 1.7 0.00 0.00 0.00 85 1016.3
20260902092028 58 141 0.0 1.7 0.00 0.00 0.00 85 1016.3
20260902091928 58 141 0.0 1.7 0.00 0.00 0.00 85 1016.3
20260902091828 58 108 0.0 1.7 0.00 0.00 0.00 85 1016.3
20260902091728 58 108 0.0 1.7 0.00 0.00 0.00 85 1016.3
20260902091701 58 108 0.0 1.7 0.00 0.00 0.00 85 1016.3
20260902091628 58 108 0.0 1.7 0.00 0.00 0.00 85 1016.3
20260902091529 58 107 0.0 0.9 0.00 0.00 0.00 85 1016.3
20260902091433 58 108 0.0 1.7 0.00 0.00 0.00 85 1016.3
20260902091329 58 107 0.0 1.7 0.00 0.00 0.00 85 1016.3
20260902091228 58 108 0.0 1.7 0.00 0.00 0.00 85 1016.3
20260902091159 58 108 0.9 1.7 0.00 0.00 0.00 85 1016.3
20260902091128 58 107 0.9 1.7 0.00 0.00 0.00 85 1016.3
20260902091028 58 107 0.9 1.7 0.00 0.00 0.00 85 1016.3
20260902090928 58 108 0.9 1.7 0.00 0.00 0.00 84 1016.3
20260902090828 58 108 0.9 1.7 0.00 0.00 0.00 84 1016.3
20260902090728 58 107 0.9 1.7 0.00 0.00 0.00 84 1016.3
20260902090659 58 107 0.9 1.7 0.00 0.00 0.00 85 1016.2
20260902090626 58 108 0.9 3.5 0.00 0.00 0.00 85 1016.2
20260902090526 58 108 0.9 3.5 0.00 0.00 0.00 85 1016.2
20260902090429 58 103 0.9 3.5 0.00 0.00 0.00 85 1016.2
20260902090224 58 113 0.9 3.5 0.00 0.00 0.00 85 1016.2
20260902090210 58 113 0.9 3.5 0.00 0.00 0.00 85 1016.2
20260902090125 58 113 0.9 3.5 0.00 0.00 0.00 85 1016.2
20260902090024 58 143 0.9 3.5 0.00 0.00 0.00 84 1016.2
20260902085927 58 143 0.9 3.5 0.00 0.00 0.00 84 1016.2
20260902085919 58 154 1.7 3.5 0.00 0.00 0.00 84 1016.2
20260902085824 58 143 0.9 3.5 0.00 0.00 0.00 84 1016.2
20260902085808 58 143 1.7 3.5 0.00 0.00 0.00 84 1016.2
20260902085620 58 143 1.7 3.5 0.00 0.00 0.00 84 1016.2
20260902085520 58 117 1.7 3.5 0.00 0.00 0.00 84 1016.2
20260902085420 58 135 1.7 3.5 0.00 0.00 0.00 84 1016.2
20260902085320 58 176 1.7 3.5 0.00 0.00 0.00 84 1016.2
20260902085220 58 146 1.7 3.5 0.00 0.00 0.00 84 1016.2
20260902085157 58 145 1.7 3.5 0.00 0.00 0.00 84 1016.2
20260902085120 58 136 1.7 3.5 0.00 0.00 0.00 84 1016.2
20260902085020 58 148 1.7 3.5 0.00 0.00 0.00 84 1016.2
20260902084920 58 137 1.7 3.5 0.00 0.00 0.00 84 1016.2
20260902084820 58 135 1.7 3.5 0.00 0.00 0.00 84 1016.2
20260902084720 58 131 1.7 3.5 0.00 0.00 0.00 84 1016.2
20260902084657 58 131 0.9 3.5 0.00 0.00 0.00 84 1016.2
20260902084619 58 122 0.9 3.5 0.00 0.00 0.00 85 1016.2
20260902084518 58 131 0.9 3.5 0.00 0.00 0.00 84 1016.2
20260902084418 58 121 0.9 3.5 0.00 0.00 0.00 84 1016.2
20260902084318 58 139 0.9 3.5 0.00 0.00 0.00 84 1016.2
20260902084218 58 143 0.9 4.3 0.00 0.00 0.00 84 1016.3
20260902084155 58 129 0.9 4.3 0.00 0.00 0.00 84 1016.3
20260902084118 58 135 0.9 4.3 0.00 0.00 0.00 85 1016.3
20260902084016 58 191 0.9 4.3 0.00 0.00 0.00 84 1016.3
20260902083916 58 210 0.9 4.3 0.00 0.00 0.00 85 1016.3
20260902083816 58 210 0.9 4.3 0.00 0.00 0.00 84 1016.2
20260902083716 58 139 0.9 4.3 0.00 0.00 0.00 84 1016.2
20260902083653 58 138 0.9 4.3 0.00 0.00 0.00 84 1016.2
20260902083616 58 139 0.9 4.3 0.00 0.00 0.00 84 1016.2
20260902083516 58 146 0.9 4.3 0.00 0.00 0.00 84 1016.2
20260902083416 58 145 0.9 4.3 0.00 0.00 0.00 84 1016.2
20260902083316 58 145 0.9 4.3 0.00 0.00 0.00 84 1016.2
20260902083216 58 143 0.9 3.5 0.00 0.00 0.00 84 1016.2
20260902083154 58 131 0.9 3.5 0.00 0.00 0.00 84 1016.2
20260902083116 58 117 0.9 2.6 0.00 0.00 0.00 84 1016.2
20260902083016 58 133 0.9 2.6 0.00 0.00 0.00 84 1016.2
20260902082916 58 146 1.7 4.3 0.00 0.00 0.00 84 1016.2
20260902082815 58 129 1.7 4.3 0.00 0.00 0.00 84 1016.2
20260902082716 58 136 1.7 4.3 0.00 0.00 0.00 84 1016.2
20260902082653 58 135 1.7 4.3 0.00 0.00 0.00 84 1016.2
20260902082615 58 124 1.7 4.3 0.00 0.00 0.00 84 1016.2
20260902082514 58 146 1.7 4.3 0.00 0.00 0.00 84 1016.2
20260902082424 58 140 1.7 4.3 0.00 0.00 0.00 84 1016.2
20260902082414 58 136 1.7 4.3 0.00 0.00 0.00 84 1016.2
20260902082314 58 165 1.7 4.3 0.00 0.00 0.00 84 1016.2
20260902082308 58 139 1.7 4.3 0.00 0.00 0.00 84 1016.2
20260902082112 58 158 1.7 4.3 0.00 0.00 0.00 84 1016.2
20260902082013 58 156 1.7 4.3 0.00 0.00 0.00 84 1016.2
20260902081912 58 134 0.9 2.6 0.00 0.00 0.00 84 1016.2
20260902081812 58 136 0.9 2.6 0.00 0.00 0.00 84 1016.2
20260902081712 58 159 0.9 2.6 0.00 0.00 0.00 84 1016.2
20260902081651 58 135 0.9 2.6 0.00 0.00 0.00 84 1016.2
20260902081610 58 146 0.9 2.6 0.00 0.00 0.00 84 1016.1
20260902081510 58 163 0.9 2.6 0.00 0.00 0.00 84 1016.2
20260902081410 58 146 0.9 2.6 0.00 0.00 0.00 84 1016.2
20260902081310 58 146 0.9 2.6 0.00 0.00 0.00 84 1016.2
20260902081210 58 145 0.9 2.6 0.00 0.00 0.00 84 1016.1
20260902081151 58 159 0.9 1.7 0.00 0.00 0.00 84 1016.1
20260902081110 58 146 0.9 2.6 0.00 0.00 0.00 84 1016.2
20260902081010 58 143 0.9 2.6 0.00 0.00 0.00 83 1016.1
20260902080907 58 137 0.9 2.6 0.00 0.00 0.00 83 1016.2
20260902080804 58 169 0.9 2.6 0.00 0.00 0.00 84 1016.2
20260902080704 58 93 0.9 2.6 0.00 0.00 0.00 84 1016.1
20260902080649 58 94 0.9 2.6 0.00 0.00 0.00 84 1016.1
20260902080602 58 96 0.9 2.6 0.00 0.00 0.00 84 1016.1
20260902080502 58 116 0.9 2.6 0.00 0.00 0.00 84 1016.1
20260902080356 58 132 0.9 2.6 0.00 0.00 0.00 83 1016.1
20260902080256 59 133 0.9 2.6 0.00 0.00 0.00 83 1016.1
20260902080159 59 150 0.9 2.6 0.00 0.00 0.00 83 1016.2
20260902080149 59 161 0.9 2.6 0.00 0.00 0.00 83 1016.2
20260902080058 59 138 0.9 1.7 0.00 0.00 0.00 83 1016.1
20260902075957 59 146 0.9 1.7 0.00 0.00 0.00 83 1016.1
20260902075856 59 146 0.9 1.7 0.00 0.00 0.00 83 1016.1
20260902075756 59 99 0.9 2.6 0.00 0.00 0.00 83 1016.1
20260902075650 59 99 0.9 2.6 0.00 0.00 0.00 83 1016.0
20260902075555 59 99 0.9 2.6 0.00 0.00 0.00 83 1016.1
20260902075453 59 99 0.9 2.6 0.00 0.00 0.00 83 1016.1
20260902075352 59 99 0.9 2.6 0.00 0.00 0.00 83 1016.0
20260902075252 59 136 1.7 3.5 0.00 0.00 0.00 83 1016.0
20260902075153 59 136 1.7 5.2 0.00 0.00 0.00 83 1016.0
20260902075053 59 136 1.7 5.2 0.00 0.00 0.00 83 1016.0
20260902074951 59 148 1.7 5.2 0.00 0.00 0.00 83 1016.0
20260902074850 59 148 1.7 5.2 0.00 0.00 0.00 83 1016.0
20260902074750 59 134 2.6 5.2 0.00 0.00 0.00 83 1016.0
20260902074652 59 133 2.6 5.2 0.00 0.00 0.00 83 1016.0
20260902074646 59 132 2.6 5.2 0.00 0.00 0.00 83 1016.0
20260902074549 59 163 2.6 5.2 0.00 0.00 0.00 83 1015.9
20260902074447 59 141 2.6 5.2 0.00 0.00 0.00 83 1015.9
20260902074346 59 141 1.7 5.2 0.00 0.00 0.00 83 1016.0
20260902074246 59 124 1.7 5.2 0.00 0.00 0.00 83 1016.0
20260902074151 59 199 1.7 4.3 0.00 0.00 0.00 83 1015.9
20260902074145 59 180 1.7 4.3 0.00 0.00 0.00 83 1015.9
20260902074047 59 143 1.7 4.3 0.00 0.00 0.00 83 1015.9
20260902073944 59 160 1.7 4.3 0.00 0.00 0.00 83 1016.0
20260902073844 59 121 0.9 3.5 0.00 0.00 0.00 83 1016.0
20260902073743 59 141 0.9 3.5 0.00 0.00 0.00 83 1016.0
20260902073650 59 149 0.9 3.5 0.00 0.00 0.00 83 1016.0
20260902073644 59 150 0.9 3.5 0.00 0.00 0.00 83 1016.0
20260902073547 59 142 0.9 3.5 0.00 0.00 0.00 83 1016.0
20260902073440 59 158 0.9 3.5 0.00 0.00 0.00 83 1016.0
20260902073338 59 124 0.9 3.5 0.00 0.00 0.00 83 1016.0
20260902073238 59 141 0.9 3.5 0.00 0.00 0.00 83 1016.0
20260902073144 59 150 0.9 3.5 0.00 0.00 0.00 83 1016.1
20260902073138 59 149 0.9 3.5 0.00 0.00 0.00 83 1016.1
20260902073038 59 150 0.9 3.5 0.00 0.00 0.00 83 1016.0
20260902072936 59 128 1.7 3.5 0.00 0.00 0.00 83 1016.0
20260902072836 59 136 1.7 3.5 0.00 0.00 0.00 83 1016.0
20260902072736 59 145 1.7 3.5 0.00 0.00 0.00 83 1016.0
20260902072641 59 132 0.9 3.5 0.00 0.00 0.00 83 1016.0
20260902072636 59 139 0.9 3.5 0.00 0.00 0.00 83 1016.0
20260902072536 59 129 1.7 3.5 0.00 0.00 0.00 83 1015.9
20260902072434 59 136 1.7 3.5 0.00 0.00 0.00 83 1015.9
20260902072335 59 127 0.9 3.5 0.00 0.00 0.00 83 1015.9
20260902072234 59 134 1.7 3.5 0.00 0.00 0.00 83 1015.9
20260902072141 59 138 1.7 3.5 0.00 0.00 0.00 83 1015.9
20260902072134 59 136 1.7 3.5 0.00 0.00 0.00 83 1015.9
20260902072034 59 119 1.7 3.5 0.00 0.00 0.00 83 1015.9
20260902071934 59 158 1.7 3.5 0.00 0.00 0.00 83 1015.9
20260902071834 59 142 1.7 3.5 0.00 0.00 0.00 83 1015.9
20260902071642 59 149 1.7 5.2 0.00 0.00 0.00 82 1015.9
20260902071633 59 150 1.7 5.2 0.00 0.00 0.00 82 1015.9
20260902071532 59 172 1.7 5.2 0.00 0.00 0.00 82 1015.9
20260902071433 59 143 1.7 5.2 0.00 0.00 0.00 82 1015.9
20260902071332 59 110 1.7 5.2 0.00 0.00 0.00 82 1015.9
20260902071231 59 95 1.7 5.2 0.00 0.00 0.00 82 1015.9
20260902071142 60 109 1.7 5.2 0.00 0.00 0.00 82 1015.9
20260902071136 60 103 1.7 5.2 0.00 0.00 0.00 82 1015.9
20260902071126 60 81 0.9 4.3 0.00 0.00 0.00 82 1015.9
20260902071032 60 113 1.7 5.2 0.00 0.00 0.00 82 1015.9
20260902071013 60 96 1.7 5.2 0.00 0.00 0.00 82 1015.9
20260902070831 60 98 1.7 5.2 0.00 0.00 0.00 82 1015.9
20260902070751 60 88 0.9 5.2 0.00 0.00 0.00 82 1015.9
20260902070632 60 110 0.9 4.3 0.00 0.00 0.00 82 1015.9
20260902070532 60 101 0.9 3.5 0.00 0.00 0.00 82 1015.9
20260902070432 60 110 0.9 3.5 0.00 0.00 0.00 82 1015.9
20260902070404 60 129 0.9 3.5 0.00 0.00 0.00 82 1015.9
20260902070332 60 110 0.9 3.5 0.00 0.00 0.00 82 1015.9
20260902070251 60 108 0.9 3.5 0.00 0.00 0.00 82 1015.9
20260902070132 60 110 0.9 3.5 0.00 0.00 0.00 82 1015.9
20260902070032 60 114 0.9 3.5 0.00 0.00 0.00 82 1015.8
20260902065930 60 114 0.9 3.5 0.00 0.00 0.00 82 1015.8
20260902065830 60 114 0.9 3.5 0.00 0.00 0.00 82 1015.8
20260902065730 60 114 1.7 3.5 0.00 0.00 0.00 82 1015.8
20260902065631 60 107 1.7 3.5 0.00 0.00 0.00 82 1015.8
20260902065527 60 92 1.7 3.5 0.00 0.00 0.00 82 1015.8
20260902065428 60 121 1.7 3.5 0.00 0.00 0.00 81 1015.8
20260902065324 60 121 1.7 3.5 0.00 0.00 0.00 81 1015.9
20260902065225 60 113 1.7 3.5 0.00 0.00 0.00 81 1015.9
20260902065138 60 91 0.9 3.5 0.00 0.00 0.00 81 1015.8
20260902065125 60 114 0.9 3.5 0.00 0.00 0.00 81 1015.8
20260902065023 60 107 0.9 3.5 0.00 0.00 0.00 81 1015.8
20260902064921 60 113 0.9 3.5 0.00 0.00 0.00 81 1015.8
20260902064857 61 129 0.9 2.6 0.00 0.00 0.00 81 1015.8
20260902064815 61 107 0.9 3.5 0.00 0.00 0.00 81 1015.9
20260902064746 61 116 0.9 2.6 0.00 0.00 0.00 81 1015.8
20260902064614 61 117 0.9 2.6 0.00 0.00 0.00 81 1015.8
20260902064515 61 120 0.9 3.5 0.00 0.00 0.00 81 1015.8
20260902064414 61 102 0.9 3.5 0.00 0.00 0.00 81 1015.8
20260902064311 61 107 0.9 3.5 0.00 0.00 0.00 81 1015.8
20260902064211 61 136 0.9 3.5 0.00 0.00 0.00 82 1015.7
20260902064134 61 138 0.9 3.5 0.00 0.00 0.00 81 1015.7
20260902064115 61 138 0.9 3.5 0.00 0.00 0.00 82 1015.7
20260902064111 61 138 1.7 3.5 0.00 0.00 0.00 81 1015.8
20260902064013 61 145 1.7 3.5 0.00 0.00 0.00 81 1015.7
20260902064005 61 146 1.7 3.5 0.00 0.00 0.00 81 1015.7
20260902063805 61 149 1.7 3.5 0.00 0.00 0.00 82 1015.8
20260902063743 61 162 0.9 3.5 0.00 0.00 0.00 82 1015.7
20260902063603 61 144 0.9 3.5 0.00 0.00 0.00 82 1015.8
20260902063503 61 131 0.9 3.5 0.00 0.00 0.00 81 1015.8
20260902063403 61 134 0.9 3.5 0.00 0.00 0.00 81 1015.8
20260902063257 61 121 0.9 3.5 0.00 0.00 0.00 81 1015.8
20260902063134 61 134 0.9 3.5 0.00 0.00 0.00 81 1015.8
20260902063056 61 134 0.9 3.5 0.00 0.00 0.00 81 1015.8
20260902062956 61 148 0.9 1.7 0.00 0.00 0.00 81 1015.9
20260902062857 61 130 0.9 1.7 0.00 0.00 0.00 81 1015.8
20260902062751 61 139 0.9 1.7 0.00 0.00 0.00 81 1015.9
20260902062631 61 127 0.9 2.6 0.00 0.00 0.00 81 1015.9
20260902062551 61 121 0.9 2.6 0.00 0.00 0.00 81 1015.9
20260902062450 61 121 0.9 2.6 0.00 0.00 0.00 81 1015.9
20260902062350 61 134 0.9 3.5 0.00 0.00 0.00 81 1015.8
20260902062250 61 136 0.9 3.5 0.00 0.00 0.00 81 1015.8
20260902062132 61 135 0.9 3.5 0.00 0.00 0.00 81 1015.8
20260902062050 61 136 1.7 4.3 0.00 0.00 0.00 81 1015.8
20260902061948 61 136 1.7 6.1 0.00 0.00 0.00 81 1015.8
20260902061844 61 181 1.7 6.1 0.00 0.00 0.00 81 1015.8
20260902061742 62 150 1.7 6.1 0.00 0.00 0.00 81 1015.8
20260902061632 62 141 1.7 6.1 0.00 0.00 0.00 81 1015.8
20260902061555 62 169 1.7 6.1 0.00 0.00 0.00 81 1015.8
20260902061551 62 143 1.7 6.1 0.00 0.00 0.00 81 1015.8
20260902061343 62 228 1.7 6.1 0.00 0.00 0.00 81 1015.8
20260902061243 62 176 1.7 6.1 0.00 0.00 0.00 81 1015.8
20260902061130 62 226 1.7 6.1 0.00 0.00 0.00 81 1015.7
20260902061045 62 236 1.7 6.1 0.00 0.00 0.00 81 1015.7
20260902060939 62 194 1.7 6.1 0.00 0.00 0.00 81 1015.7
20260902060850 62 233 1.7 6.1 0.00 0.00 0.00 80 1015.7
20260902060838 62 204 1.7 6.1 0.00 0.00 0.00 80 1015.7
20260902060746 62 174 1.7 6.1 0.00 0.00 0.00 80 1015.8
20260902060738 62 233 1.7 6.1 0.00 0.00 0.00 80 1015.7
20260902060544 62 218 2.6 7.0 0.00 0.00 0.00 80 1015.8
20260902060438 62 141 2.6 7.0 0.00 0.00 0.00 80 1015.7
20260902060338 62 226 1.7 7.0 0.00 0.00 0.00 80 1015.7
20260902060238 62 235 2.6 7.0 0.00 0.00 0.00 80 1015.7
20260902060138 62 235 2.6 7.0 0.00 0.00 0.00 80 1015.8
20260902060128 62 200 2.6 7.0 0.00 0.00 0.00 80 1015.8
20260902060037 62 236 2.6 7.0 0.00 0.00 0.00 80 1015.7
20260902055934 62 236 2.6 7.0 0.00 0.00 0.00 80 1015.7
20260902055835 62 195 2.6 7.0 0.00 0.00 0.00 80 1015.8
20260902055732 62 232 2.6 7.0 0.00 0.00 0.00 80 1015.8
20260902055632 62 233 2.6 7.0 0.00 0.00 0.00 80 1015.8
20260902055530 62 229 2.6 6.1 0.00 0.00 0.00 80 1015.9
20260902055430 62 228 2.6 6.1 0.00 0.00 0.00 80 1015.8
20260902055330 62 232 2.6 6.1 0.00 0.00 0.00 80 1015.9
20260902055230 62 258 2.6 6.1 0.00 0.00 0.00 80 1015.8
20260902055131 62 267 2.6 5.2 0.00 0.00 0.00 80 1015.9
20260902055024 62 217 2.6 5.2 0.00 0.00 0.00 80 1015.8
20260902054925 62 228 2.6 7.8 0.00 0.00 0.00 80 1015.9
20260902054824 62 226 2.6 7.8 0.00 0.00 0.00 80 1015.8
20260902054722 62 231 2.6 7.8 0.00 0.00 0.00 80 1015.8
20260902054628 62 236 2.6 7.8 0.00 0.00 0.00 80 1015.9
20260902054623 62 242 2.6 7.8 0.00 0.00 0.00 80 1015.9
20260902054516 62 250 3.5 7.8 0.00 0.00 0.00 80 1015.9
20260902054424 62 239 3.5 7.8 0.00 0.00 0.00 80 1015.9
20260902054317 62 269 3.5 7.8 0.00 0.00 0.00 80 1015.9
20260902054217 62 239 3.5 7.8 0.00 0.00 0.00 80 1015.9
20260902054126 62 233 3.5 7.8 0.00 0.00 0.00 79 1015.9
20260902054116 62 219 3.5 8.7 0.00 0.00 0.00 79 1015.9
20260902054011 62 176 3.5 8.7 0.00 0.00 0.00 79 1015.9
20260902053911 62 236 3.5 8.7 0.00 0.00 0.00 79 1015.9
20260902053810 62 248 3.5 8.7 0.00 0.00 0.00 79 1015.9
20260902053710 62 204 3.5 8.7 0.00 0.00 0.00 79 1015.9
20260902053625 62 207 3.5 8.7 0.00 0.00 0.00 79 1015.9
20260902053611 62 238 3.5 9.6 0.00 0.00 0.00 79 1015.9
20260902053504 62 231 3.5 9.6 0.00 0.00 0.00 79 1015.9
20260902053404 62 228 3.5 9.6 0.00 0.00 0.00 79 1015.8
20260902053304 62 256 4.3 9.6 0.00 0.00 0.00 79 1015.9
20260902053206 62 218 4.3 9.6 0.00 0.00 0.00 79 1015.8
20260902053139 62 215 4.3 9.6 0.00 0.00 0.00 79 1015.8
20260902053105 62 252 4.3 9.6 0.00 0.00 0.00 79 1015.8
20260902053000 62 229 4.3 9.6 0.00 0.00 0.00 79 1015.8
20260902052900 62 207 4.3 9.6 0.00 0.00 0.00 79 1015.8
20260902052849 62 195 4.3 9.6 0.00 0.00 0.00 78 1015.8
20260902052801 62 248 4.3 9.6 0.00 0.00 0.00 78 1015.8
20260902052736 62 238 4.3 9.6 0.00 0.00 0.00 78 1015.8
20260902052559 62 219 4.3 9.6 0.00 0.00 0.00 78 1015.8
20260902052452 62 225 4.3 9.6 0.00 0.00 0.00 78 1015.9
20260902052353 62 207 4.3 9.6 0.00 0.00 0.00 78 1015.8
20260902052153 62 253 3.5 8.7 0.00 0.00 0.00 78 1015.8
20260902052126 62 226 3.5 8.7 0.00 0.00 0.00 78 1015.8
20260902052053 63 256 3.5 8.7 0.00 0.00 0.00 78 1015.9
20260902051949 63 225 3.5 8.7 0.00 0.00 0.00 78 1015.9
20260902051847 63 214 4.3 9.6 0.00 0.00 0.00 78 1015.9
20260902051746 63 243 4.3 9.6 0.00 0.00 0.00 78 1015.9
20260902051646 63 256 4.3 9.6 0.00 0.00 0.00 77 1015.9
20260902051625 63 236 4.3 9.6 0.00 0.00 0.00 77 1015.9
20260902051547 63 243 4.3 9.6 0.00 0.00 0.00 77 1015.9
20260902051443 63 216 4.3 9.6 0.00 0.00 0.00 77 1015.8
20260902051341 63 225 3.5 9.6 0.00 0.00 0.00 77 1015.8
20260902051240 63 222 4.3 11.3 0.00 0.00 0.00 77 1015.8
20260902051125 63 231 4.3 11.3 0.00 0.00 0.00 77 1015.8
20260902051050 63 281 4.3 11.3 0.00 0.00 0.00 77 1015.9
20260902050935 63 236 5.2 11.3 0.00 0.00 0.00 77 1015.9
20260902050834 63 228 5.2 13.0 0.00 0.00 0.00 77 1015.9
20260902050735 63 253 5.2 13.0 0.00 0.00 0.00 77 1015.9
20260902050636 63 274 5.2 13.0 0.00 0.00 0.00 77 1015.8
20260902050626 63 232 5.2 13.0 0.00 0.00 0.00 77 1015.8
20260902050534 63 235 5.2 13.0 0.00 0.00 0.00 77 1015.8
20260902050431 63 229 5.2 13.0 0.00 0.00 0.00 77 1015.8
20260902050328 63 228 6.1 13.0 0.00 0.00 0.00 77 1015.8
20260902050229 63 250 6.1 13.0 0.00 0.00 0.00 77 1015.9
20260902050130 63 267 6.1 13.0 0.00 0.00 0.00 77 1015.9
20260902050030 63 250 5.2 13.0 0.00 0.00 0.00 77 1015.8
20260902045924 63 210 5.2 13.0 0.00 0.00 0.00 76 1015.7
20260902045827 63 233 4.3 11.3 0.00 0.00 0.00 76 1015.7
20260902045727 63 246 4.3 11.3 0.00 0.00 0.00 76 1015.7
20260902045629 63 239 4.3 11.3 0.00 0.00 0.00 76 1015.7
20260902045623 63 231 4.3 11.3 0.00 0.00 0.00 76 1015.7
20260902045522 63 242 4.3 11.3 0.00 0.00 0.00 76 1015.7
20260902045418 63 195 3.5 11.3 0.00 0.00 0.00 76 1015.8
20260902045351 63 236 2.6 11.3 0.00 0.00 0.00 75 1015.8
20260902045318 63 253 3.5 11.3 0.00 0.00 0.00 76 1015.8
20260902045235 63 221 3.5 11.3 0.00 0.00 0.00 76 1015.8
20260902045120 63 266 2.6 11.3 0.00 0.00 0.00 75 1015.8
20260902045017 63 236 3.5 9.6 0.00 0.00 0.00 75 1015.8
20260902044910 63 221 3.5 9.6 0.00 0.00 0.00 75 1015.8
20260902044810 63 228 3.5 9.6 0.00 0.00 0.00 75 1015.8
20260902044714 63 210 3.5 9.6 0.00 0.00 0.00 75 1015.8
20260902044625 63 245 3.5 9.6 0.00 0.00 0.00 75 1015.8
20260902044611 63 242 3.5 9.6 0.00 0.00 0.00 75 1015.7
20260902044511 64 248 3.5 10.4 0.00 0.00 0.00 74 1015.7
20260902044414 64 256 4.3 10.4 0.00 0.00 0.00 74 1015.8
20260902044308 64 228 4.3 10.4 0.00 0.00 0.00 74 1015.8
20260902044208 64 230 4.3 10.4 0.00 0.00 0.00 74 1015.8
20260902044126 64 264 4.3 10.4 0.00 0.00 0.00 74 1015.8
20260902044109 64 232 5.2 10.4 0.00 0.00 0.00 74 1015.8
20260902044009 64 262 5.2 10.4 0.00 0.00 0.00 74 1015.8
20260902043908 64 204 5.2 10.4 0.00 0.00 0.00 74 1015.8
20260902043808 64 215 5.2 10.4 0.00 0.00 0.00 74 1015.7
20260902043709 64 250 5.2 10.4 0.00 0.00 0.00 73 1015.7
20260902043625 64 248 5.2 10.4 0.00 0.00 0.00 73 1015.7
20260902043610 64 239 4.3 10.4 0.00 0.00 0.00 73 1015.7
20260902043509 64 236 4.3 10.4 0.00 0.00 0.00 73 1015.7
20260902043412 64 230 4.3 10.4 0.00 0.00 0.00 73 1015.7
20260902043308 64 240 4.3 10.4 0.00 0.00 0.00 73 1015.6
20260902043208 64 219 4.3 10.4 0.00 0.00 0.00 73 1015.6
20260902043124 64 236 4.3 10.4 0.00 0.00 0.00 73 1015.6
20260902043110 64 183 4.3 10.4 0.00 0.00 0.00 73 1015.6
20260902043009 64 231 4.3 10.4 0.00 0.00 0.00 72 1015.6
20260902042908 64 237 4.3 10.4 0.00 0.00 0.00 72 1015.6
20260902042811 64 245 4.3 10.4 0.00 0.00 0.00 72 1015.6
20260902042708 64 230 3.5 10.4 0.00 0.00 0.00 72 1015.6
20260902042639 64 211 3.5 10.4 0.00 0.00 0.00 72 1015.6
20260902042604 64 225 4.3 10.4 0.00 0.00 0.00 72 1015.6
20260902042502 64 264 4.3 10.4 0.00 0.00 0.00 72 1015.6
20260902042403 64 219 3.5 10.4 0.00 0.00 0.00 71 1015.6
20260902042308 64 223 3.5 10.4 0.00 0.00 0.00 71 1015.6
20260902042157 64 233 3.5 10.4 0.00 0.00 0.00 71 1015.6
20260902042118 64 253 4.3 10.4 0.00 0.00 0.00 71 1015.6
20260902042057 64 225 4.3 10.4 0.00 0.00 0.00 71 1015.6
20260902041956 64 236 3.5 10.4 0.00 0.00 0.00 71 1015.6
20260902041856 64 260 3.5 10.4 0.00 0.00 0.00 71 1015.6
20260902041756 64 226 4.3 10.4 0.00 0.00 0.00 71 1015.6
20260902041651 64 200 4.3 13.9 0.00 0.00 0.00 70 1015.5
20260902041611 64 242 4.3 13.9 0.00 0.00 0.00 70 1015.5
20260902041550 65 224 4.3 13.9 0.00 0.00 0.00 70 1015.5
20260902041450 65 239 4.3 13.9 0.00 0.00 0.00 70 1015.5
20260902041350 65 256 4.3 13.9 0.00 0.00 0.00 70 1015.5
20260902041250 65 253 4.3 13.9 0.00 0.00 0.00 70 1015.5
20260902041145 65 250 5.2 13.9 0.00 0.00 0.00 70 1015.5
20260902041105 65 228 5.2 13.9 0.00 0.00 0.00 69 1015.4
20260902041045 65 186 5.2 13.9 0.00 0.00 0.00 69 1015.4
20260902040944 65 242 5.2 13.9 0.00 0.00 0.00 69 1015.4
20260902040845 65 192 5.2 13.9 0.00 0.00 0.00 69 1015.4
20260902040744 65 283 5.2 13.9 0.00 0.00 0.00 69 1015.4
20260902040638 65 243 5.2 13.9 0.00 0.00 0.00 69 1015.4
20260902040559 65 229 5.2 13.9 0.00 0.00 0.00 69 1015.3
20260902040542 65 250 5.2 13.9 0.00 0.00 0.00 69 1015.3
20260902040439 65 226 5.2 13.9 0.00 0.00 0.00 68 1015.4
20260902040339 65 240 5.2 13.9 0.00 0.00 0.00 68 1015.3
20260902040238 65 194 5.2 13.9 0.00 0.00 0.00 68 1015.3
20260902040132 65 228 4.3 13.9 0.00 0.00 0.00 68 1015.3
20260902040107 65 236 4.3 13.9 0.00 0.00 0.00 68 1015.2
20260902040033 65 246 4.3 13.9 0.00 0.00 0.00 68 1015.2
20260902035932 65 224 4.3 13.9 0.00 0.00 0.00 68 1015.3
20260902035833 65 240 3.5 13.9 0.00 0.00 0.00 67 1015.3
20260902035732 65 228 3.5 11.3 0.00 0.00 0.00 67 1015.3
20260902035626 65 231 3.5 11.3 0.00 0.00 0.00 67 1015.3
20260902035548 65 217 3.5 9.6 0.00 0.00 0.00 67 1015.3
20260902035526 65 300 3.5 9.6 0.00 0.00 0.00 67 1015.3
20260902035426 65 242 3.5 9.6 0.00 0.00 0.00 67 1015.2
20260902035326 65 210 3.5 9.6 0.00 0.00 0.00 67 1015.2
20260902035227 65 235 3.5 10.4 0.00 0.00 0.00 66 1015.2
20260902035124 65 259 3.5 10.4 0.00 0.00 0.00 66 1015.2
20260902035043 66 239 3.5 10.4 0.00 0.00 0.00 66 1015.2
20260902035021 66 242 3.5 10.4 0.00 0.00 0.00 66 1015.2
20260902034920 66 278 3.5 10.4 0.00 0.00 0.00 66 1015.1
20260902034820 66 304 3.5 10.4 0.00 0.00 0.00 66 1015.2
20260902034721 66 233 4.3 10.4 0.00 0.00 0.00 66 1015.0
20260902034617 66 228 4.3 11.3 0.00 0.00 0.00 66 1015.1
20260902034550 66 304 4.3 11.3 0.00 0.00 0.00 66 1015.1
20260902034516 66 183 4.3 11.3 0.00 0.00 0.00 66 1015.1
20260902034416 66 208 4.3 11.3 0.00 0.00 0.00 66 1015.1
20260902034316 66 215 4.3 11.3 0.00 0.00 0.00 66 1015.1
20260902034214 66 242 5.2 11.3 0.00 0.00 0.00 65 1015.1
20260902034108 66 226 5.2 11.3 0.00 0.00 0.00 65 1015.1
20260902034042 66 250 5.2 11.3 0.00 0.00 0.00 65 1015.1
20260902034008 66 203 5.2 11.3 0.00 0.00 0.00 65 1015.1
20260902033910 66 216 5.2 11.3 0.00 0.00 0.00 65 1015.0
20260902033809 66 233 4.3 11.3 0.00 0.00 0.00 65 1015.0
20260902033714 66 277 5.2 11.3 0.00 0.00 0.00 65 1015.0
20260902033608 66 240 5.2 13.9 0.00 0.00 0.00 65 1015.0
20260902033524 66 217 5.2 13.9 0.00 0.00 0.00 65 1015.0
20260902033507 66 250 5.2 13.9 0.00 0.00 0.00 65 1015.0
20260902033405 66 248 4.3 13.9 0.00 0.00 0.00 65 1014.9
20260902033302 66 281 4.3 13.9 0.00 0.00 0.00 65 1014.9
20260902033241 66 239 4.3 13.9 0.00 0.00 0.00 64 1014.8
20260902033202 66 224 3.5 13.9 0.00 0.00 0.00 65 1014.9
20260902033128 66 211 3.5 13.9 0.00 0.00 0.00 65 1014.9
20260902033000 66 225 4.3 13.9 0.00 0.00 0.00 64 1014.8
20260902032900 66 281 4.3 14.8 0.00 0.00 0.00 64 1014.9
20260902032758 66 280 5.2 14.8 0.00 0.00 0.00 64 1014.9
20260902032656 67 226 4.3 14.8 0.00 0.00 0.00 64 1014.9
20260902032551 67 223 4.3 14.8 0.00 0.00 0.00 64 1014.8
20260902032511 67 225 4.3 14.8 0.00 0.00 0.00 64 1014.8
20260902032454 67 219 4.3 14.8 0.00 0.00 0.00 64 1014.8
20260902032355 67 239 4.3 14.8 0.00 0.00 0.00 64 1014.7
20260902032250 67 250 4.3 14.8 0.00 0.00 0.00 64 1014.7
20260902032223 67 240 3.5 14.8 0.00 0.00 0.00 64 1014.6
20260902032153 67 226 4.3 14.8 0.00 0.00 0.00 64 1014.7
20260902032119 67 228 4.3 14.8 0.00 0.00 0.00 64 1014.7
20260902031945 67 276 3.5 14.8 0.00 0.00 0.00 64 1014.6
20260902031846 67 250 3.5 12.2 0.00 0.00 0.00 63 1014.7
20260902031744 67 183 2.6 10.4 0.00 0.00 0.00 64 1014.6
20260902031721 67 238 2.6 9.6 0.00 0.00 0.00 63 1014.6
20260902031644 67 249 2.6 10.4 0.00 0.00 0.00 63 1014.6
20260902031610 67 257 2.6 9.6 0.00 0.00 0.00 63 1014.6
20260902031438 67 247 2.6 9.6 0.00 0.00 0.00 63 1014.6
20260902031339 67 267 3.5 9.6 0.00 0.00 0.00 63 1014.6
20260902031238 67 241 3.5 9.6 0.00 0.00 0.00 63 1014.6
20260902031140 67 248 3.5 9.6 0.00 0.00 0.00 63 1014.6
20260902031032 67 239 3.5 9.6 0.00 0.00 0.00 63 1014.6
20260902030953 67 286 3.5 9.6 0.00 0.00 0.00 63 1014.6
20260902030932 67 242 3.5 9.6 0.00 0.00 0.00 63 1014.6
20260902030832 67 238 3.5 9.6 0.00 0.00 0.00 63 1014.6
20260902030732 67 200 3.5 9.6 0.00 0.00 0.00 63 1014.6
20260902030705 67 214 4.3 9.6 0.00 0.00 0.00 62 1014.5
20260902030632 67 235 4.3 9.6 0.00 0.00 0.00 63 1014.5
20260902030559 67 233 4.3 9.6 0.00 0.00 0.00 62 1014.4
20260902030427 67 214 4.3 9.6 0.00 0.00 0.00 62 1014.5
20260902030326 67 208 3.5 9.6 0.00 0.00 0.00 62 1014.4
20260902030226 67 221 3.5 9.6 0.00 0.00 0.00 62 1014.4
20260902030126 67 248 3.5 9.6 0.00 0.00 0.00 62 1014.4
20260902030020 67 225 3.5 9.6 0.00 0.00 0.00 62 1014.4
20260902025941 67 229 3.5 9.6 0.00 0.00 0.00 62 1014.4
20260902025921 67 250 3.5 9.6 0.00 0.00 0.00 62 1014.4
20260902025820 67 222 3.5 10.4 0.00 0.00 0.00 62 1014.4
20260902025721 67 233 3.5 10.4 0.00 0.00 0.00 62 1014.3
20260902025620 67 298 3.5 10.4 0.00 0.00 0.00 62 1014.3
20260902025514 67 263 3.5 10.4 0.00 0.00 0.00 62 1014.3
20260902025435 67 263 3.5 10.4 0.00 0.00 0.00 62 1014.3
20260902025415 67 316 3.5 10.4 0.00 0.00 0.00 62 1014.3
20260902025315 67 294 3.5 10.4 0.00 0.00 0.00 62 1014.4
20260902025214 67 229 3.5 10.4 0.00 0.00 0.00 62 1014.3
20260902025114 67 253 4.3 11.3 0.00 0.00 0.00 62 1014.3
20260902025008 67 301 4.3 11.3 0.00 0.00 0.00 61 1014.3
20260902024929 67 259 4.3 11.3 0.00 0.00 0.00 61 1014.3
20260902024909 67 253 4.3 11.3 0.00 0.00 0.00 61 1014.3
20260902024808 67 187 4.3 11.3 0.00 0.00 0.00 61 1014.3
20260902024708 67 239 4.3 11.3 0.00 0.00 0.00 61 1014.2
20260902024609 68 256 4.3 11.3 0.00 0.00 0.00 61 1014.3
20260902024506 68 281 4.3 11.3 0.00 0.00 0.00 61 1014.2
20260902024423 68 316 4.3 11.3 0.00 0.00 0.00 61 1014.2
20260902024406 68 248 4.3 11.3 0.00 0.00 0.00 61 1014.2
20260902024305 68 230 4.3 11.3 0.00 0.00 0.00 61 1014.2
20260902024204 68 221 4.3 11.3 0.00 0.00 0.00 61 1014.3
20260902024103 68 243 4.3 11.3 0.00 0.00 0.00 61 1014.3
20260902023958 68 311 4.3 12.2 0.00 0.00 0.00 61 1014.2
20260902023917 68 246 4.3 12.2 0.00 0.00 0.00 61 1014.2
20260902023903 68 256 4.3 12.2 0.00 0.00 0.00 60 1014.2
20260902023756 68 232 4.3 12.2 0.00 0.00 0.00 60 1014.2
20260902023656 68 222 4.3 12.2 0.00 0.00 0.00 60 1014.2
20260902023557 68 263 3.5 12.2 0.00 0.00 0.00 60 1014.2
20260902023450 68 264 3.5 12.2 0.00 0.00 0.00 60 1014.2
20260902023411 68 219 3.5 12.2 0.00 0.00 0.00 60 1014.2
20260902023350 68 285 3.5 12.2 0.00 0.00 0.00 60 1014.2
20260902023250 68 278 3.5 12.2 0.00 0.00 0.00 60 1014.1
20260902023151 68 258 3.5 12.2 0.00 0.00 0.00 60 1014.1
20260902023140 68 236 3.5 12.2 0.00 0.00 0.00 59 1014.1
20260902023051 68 257 3.5 12.2 0.00 0.00 0.00 59 1014.1
20260902023028 68 281 3.5 12.2 0.00 0.00 0.00 59 1014.1
20260902022845 68 264 3.5 12.2 0.00 0.00 0.00 59 1014.1
20260902022745 68 269 2.6 11.3 0.00 0.00 0.00 59 1014.1
20260902022645 68 253 2.6 11.3 0.00 0.00 0.00 59 1014.1
20260902022622 68 225 2.6 11.3 0.00 0.00 0.00 58 1014.1
20260902022545 68 253 3.5 11.3 0.00 0.00 0.00 58 1014.0
20260902022515 68 282 3.5 11.3 0.00 0.00 0.00 58 1014.1
20260902022342 68 232 2.6 11.3 0.00 0.00 0.00 58 1014.1
20260902022241 69 256 2.6 11.3 0.00 0.00 0.00 58 1014.1
20260902022145 69 260 2.6 11.3 0.00 0.00 0.00 58 1014.1
20260902022041 69 212 2.6 13.0 0.00 0.00 0.00 58 1014.1
20260902021932 69 291 3.5 13.0 0.00 0.00 0.00 58 1014.0
20260902021906 69 283 3.5 13.0 0.00 0.00 0.00 58 1014.0
20260902021832 69 353 3.5 13.0 0.00 0.00 0.00 58 1014.0
20260902021732 69 253 3.5 13.0 0.00 0.00 0.00 58 1014.0
20260902021632 69 146 3.5 13.0 0.00 0.00 0.00 58 1014.0
20260902021532 69 285 3.5 13.0 0.00 0.00 0.00 57 1013.9
20260902021429 69 239 3.5 13.0 0.00 0.00 0.00 57 1014.0
20260902021347 69 287 3.5 13.0 0.00 0.00 0.00 57 1013.9
20260902021327 69 290 3.5 13.0 0.00 0.00 0.00 57 1013.9
20260902021226 69 274 2.6 13.0 0.00 0.00 0.00 57 1013.9
20260902021126 69 264 2.6 11.3 0.00 0.00 0.00 57 1014.0
20260902021025 69 226 2.6 8.7 0.00 0.00 0.00 57 1013.9
20260902020920 69 238 2.6 8.7 0.00 0.00 0.00 57 1013.9
20260902020842 69 212 2.6 8.7 0.00 0.00 0.00 57 1013.9
20260902020821 69 225 2.6 8.7 0.00 0.00 0.00 57 1013.9
20260902020720 69 307 1.7 8.7 0.00 0.00 0.00 57 1013.9
20260902020620 69 219 1.7 8.7 0.00 0.00 0.00 57 1013.8
20260902020520 69 239 2.6 8.7 0.00 0.00 0.00 57 1013.8
20260902020414 69 260 2.6 8.7 0.00 0.00 0.00 57 1013.9
20260902020335 69 226 2.6 8.7 0.00 0.00 0.00 57 1013.9
20260902020314 69 283 2.6 8.7 0.00 0.00 0.00 57 1013.8
20260902020215 69 221 2.6 8.7 0.00 0.00 0.00 56 1013.8
20260902020115 69 234 2.6 7.8 0.00 0.00 0.00 57 1013.8
20260902020014 69 271 2.6 7.8 0.00 0.00 0.00 56 1013.8
20260902015909 69 302 2.6 10.4 0.00 0.00 0.00 56 1013.9
20260902015808 69 270 2.6 10.4 0.00 0.00 0.00 56 1013.9
20260902015708 69 269 2.6 10.4 0.00 0.00 0.00 56 1013.8
20260902015609 69 291 2.6 10.4 0.00 0.00 0.00 56 1013.8
20260902015508 69 286 3.5 10.4 0.00 0.00 0.00 56 1013.9
20260902015404 69 243 3.5 10.4 0.00 0.00 0.00 56 1013.9
20260902015323 69 240 3.5 10.4 0.00 0.00 0.00 56 1013.9
20260902015306 69 193 3.5 10.4 0.00 0.00 0.00 56 1013.8
20260902015205 69 291 3.5 10.4 0.00 0.00 0.00 56 1013.9
20260902015104 70 242 3.5 10.4 0.00 0.00 0.00 56 1013.9
20260902015002 70 304 2.6 10.4 0.00 0.00 0.00 56 1013.8
20260902014856 70 308 2.6 9.6 0.00 0.00 0.00 56 1013.8
20260902014817 70 226 2.6 9.6 0.00 0.00 0.00 55 1013.8
20260902014756 70 301 2.6 9.6 0.00 0.00 0.00 55 1013.8
20260902014656 70 263 3.5 9.6 0.00 0.00 0.00 55 1013.8
20260902014557 70 195 2.6 9.6 0.00 0.00 0.00 55 1013.8
20260902014533 70 250 3.5 10.4 0.00 0.00 0.00 55 1013.8
20260902014456 70 259 2.6 7.0 0.00 0.00 0.00 55 1013.8
20260902014421 70 298 2.6 10.4 0.00 0.00 0.00 55 1013.8
20260902014250 70 242 3.5 10.4 0.00 0.00 0.00 55 1013.8
20260902014150 70 238 3.5 10.4 0.00 0.00 0.00 55 1013.8
20260902014051 70 243 3.5 11.3 0.00 0.00 0.00 55 1013.7
20260902013950 70 193 3.5 11.3 0.00 0.00 0.00 55 1013.7
20260902013846 70 250 3.5 11.3 0.00 0.00 0.00 55 1013.7
20260902013806 70 222 4.3 11.3 0.00 0.00 0.00 54 1013.7
20260902013744 70 246 4.3 11.3 0.00 0.00 0.00 54 1013.7
20260902013644 71 236 4.3 11.3 0.00 0.00 0.00 54 1013.7
20260902013546 71 269 4.3 11.3 0.00 0.00 0.00 54 1013.8
20260902013520 71 218 4.3 11.3 0.00 0.00 0.00 53 1013.8
20260902013444 71 298 4.3 11.3 0.00 0.00 0.00 54 1013.7
20260902013338 71 274 4.3 11.3 0.00 0.00 0.00 54 1013.7
20260902013239 71 238 4.3 11.3 0.00 0.00 0.00 53 1013.8
20260902013138 71 253 4.3 11.3 0.00 0.00 0.00 53 1013.7
20260902013039 71 281 4.3 11.3 0.00 0.00 0.00 53 1013.7
20260902012938 71 253 4.3 11.3 0.00 0.00 0.00 53 1013.7
20260902012834 71 290 4.3 11.3 0.00 0.00 0.00 53 1013.7
20260902012753 71 255 4.3 11.3 0.00 0.00 0.00 53 1013.7
20260902012732 71 259 4.3 11.3 0.00 0.00 0.00 52 1013.7
20260902012632 71 231 4.3 11.3 0.00 0.00 0.00 52 1013.6
20260902012535 71 289 3.5 11.3 0.00 0.00 0.00 52 1013.6
20260902012432 72 271 3.5 11.3 0.00 0.00 0.00 52 1013.6
20260902012326 72 264 3.5 10.4 0.00 0.00 0.00 52 1013.6
20260902012247 72 248 3.5 10.4 0.00 0.00 0.00 51 1013.6
20260902012227 72 246 3.5 10.4 0.00 0.00 0.00 51 1013.6
20260902012126 72 252 3.5 10.4 0.00 0.00 0.00 51 1013.6
20260902012026 72 222 3.5 10.4 0.00 0.00 0.00 51 1013.6
20260902011926 72 238 3.5 10.4 0.00 0.00 0.00 51 1013.6
20260902011821 72 232 3.5 10.4 0.00 0.00 0.00 51 1013.6
20260902011742 72 238 2.6 10.4 0.00 0.00 0.00 51 1013.6
20260902011721 72 232 2.6 10.4 0.00 0.00 0.00 51 1013.6
20260902011620 72 259 2.6 10.4 0.00 0.00 0.00 51 1013.5
20260902011521 72 262 2.6 10.4 0.00 0.00 0.00 51 1013.6
20260902011420 72 290 3.5 11.3 0.00 0.00 0.00 51 1013.5
20260902011316 72 243 4.3 11.3 0.00 0.00 0.00 51 1013.5
20260902011235 72 228 4.3 11.3 0.00 0.00 0.00 51 1013.5
20260902011214 72 256 4.3 11.3 0.00 0.00 0.00 51 1013.5
20260902011115 72 253 4.3 11.3 0.00 0.00 0.00 51 1013.5
20260902011015 72 259 4.3 11.3 0.00 0.00 0.00 51 1013.5
20260902010914 72 253 5.2 11.3 0.00 0.00 0.00 51 1013.5
20260902010810 72 270 5.2 11.3 0.00 0.00 0.00 51 1013.5
20260902010729 72 269 5.2 11.3 0.00 0.00 0.00 51 1013.5
20260902010708 72 218 5.2 11.3 0.00 0.00 0.00 51 1013.4
20260902010609 72 285 5.2 12.2 0.00 0.00 0.00 51 1013.5
20260902010508 72 217 4.3 12.2 0.00 0.00 0.00 51 1013.4
20260902010409 72 228 4.3 12.2 0.00 0.00 0.00 50 1013.5
20260902010304 72 238 3.5 12.2 0.00 0.00 0.00 50 1013.5
20260902010223 73 231 3.5 12.2 0.00 0.00 0.00 50 1013.5
20260902010203 73 232 3.5 12.2 0.00 0.00 0.00 50 1013.5
20260902010004 73 240 3.5 12.2 0.00 0.00 0.00 50 1013.5
20260902005902 73 242 2.6 12.2 0.00 0.00 0.00 50 1013.5
20260902005758 73 243 1.7 12.2 0.00 0.00 0.00 50 1013.5
20260902005717 73 250 1.7 12.2 0.00 0.00 0.00 50 1013.5
20260902005658 73 281 1.7 12.2 0.00 0.00 0.00 50 1013.5
20260902005600 73 283 1.7 7.0 0.00 0.00 0.00 50 1013.5
20260902005458 73 233 1.7 7.0 0.00 0.00 0.00 50 1013.5
20260902005430 73 221 1.7 7.0 0.00 0.00 0.00 50 1013.5
20260902005359 73 233 1.7 7.0 0.00 0.00 0.00 50 1013.5
20260902005322 73 240 1.7 7.0 0.00 0.00 0.00 50 1013.5
20260902005152 73 212 1.7 7.0 0.00 0.00 0.00 50 1013.5
20260902005053 73 271 1.7 7.0 0.00 0.00 0.00 50 1013.4
20260902004952 73 250 1.7 8.7 0.00 0.00 0.00 51 1013.4
20260902004933 73 243 2.6 8.7 0.00 0.00 0.00 50 1013.4
20260902004850 73 214 1.7 8.7 0.00 0.00 0.00 51 1013.4
20260902004815 73 243 2.6 8.7 0.00 0.00 0.00 51 1013.4
20260902004644 73 243 2.6 8.7 0.00 0.00 0.00 50 1013.4
20260902004545 73 235 3.5 11.3 0.00 0.00 0.00 50 1013.5
20260902004444 73 230 3.5 11.3 0.00 0.00 0.00 50 1013.5
20260902004348 73 253 4.3 11.3 0.00 0.00 0.00 50 1013.5
20260902004238 73 252 3.5 11.3 0.00 0.00 0.00 50 1013.5
20260902004159 73 243 4.3 11.3 0.00 0.00 0.00 50 1013.4
20260902004138 73 236 4.3 11.3 0.00 0.00 0.00 50 1013.4
20260902004040 73 245 3.5 11.3 0.00 0.00 0.00 49 1013.5
20260902003939 73 255 3.5 11.3 0.00 0.00 0.00 48 1013.5
20260902003839 74 239 3.5 11.3 0.00 0.00 0.00 48 1013.4
20260902003734 74 221 3.5 13.9 0.00 0.00 0.00 48 1013.4
20260902003653 74 210 3.5 13.9 0.00 0.00 0.00 48 1013.5
20260902003633 74 243 3.5 13.9 0.00 0.00 0.00 48 1013.5
20260902003538 74 218 3.5 13.9 0.00 0.00 0.00 48 1013.5
20260902003432 74 219 3.5 13.9 0.00 0.00 0.00 48 1013.4
20260902003332 74 183 3.5 13.9 0.00 0.00 0.00 49 1013.4
20260902003226 74 231 3.5 13.9 0.00 0.00 0.00 48 1013.4
20260902003148 74 207 3.5 13.9 0.00 0.00 0.00 48 1013.5
20260902003128 74 253 3.5 13.9 0.00 0.00 0.00 48 1013.5
20260902003026 74 236 3.5 13.9 0.00 0.00 0.00 48 1013.5
20260902002926 74 124 3.5 13.9 0.00 0.00 0.00 48 1013.5
20260902002826 74 231 3.5 13.9 0.00 0.00 0.00 48 1013.6
20260902002720 74 235 2.6 10.4 0.00 0.00 0.00 48 1013.6
20260902002641 74 212 2.6 10.4 0.00 0.00 0.00 48 1013.5
20260902002620 74 236 2.6 10.4 0.00 0.00 0.00 48 1013.5
20260902002520 74 253 3.5 10.4 0.00 0.00 0.00 48 1013.5
20260902002420 74 210 2.6 10.4 0.00 0.00 0.00 48 1013.5
20260902002357 74 246 3.5 10.4 0.00 0.00 0.00 47 1013.5
20260902002320 74 139 2.6 10.4 0.00 0.00 0.00 48 1013.5
20260902002246 74 246 3.5 10.4 0.00 0.00 0.00 48 1013.5
20260902002114 74 245 3.5 10.4 0.00 0.00 0.00 47 1013.4
20260902002014 74 271 3.5 10.4 0.00 0.00 0.00 48 1013.5
20260902001914 74 243 4.3 13.0 0.00 0.00 0.00 48 1013.4
20260902001814 74 263 4.3 13.0 0.00 0.00 0.00 48 1013.5
20260902001708 74 257 3.5 13.0 0.00 0.00 0.00 47 1013.5
20260902001629 74 231 3.5 13.0 0.00 0.00 0.00 47 1013.5
20260902001608 74 236 3.5 13.0 0.00 0.00 0.00 47 1013.4
20260902001508 74 246 3.5 13.0 0.00 0.00 0.00 48 1013.4
20260902001408 74 253 2.6 13.0 0.00 0.00 0.00 48 1013.4
20260902001343 74 270 2.6 13.0 0.00 0.00 0.00 47 1013.4
20260902001309 74 238 2.6 13.0 0.00 0.00 0.00 48 1013.4
20260902001233 74 283 2.6 13.0 0.00 0.00 0.00 47 1013.4
20260902001103 74 193 2.6 13.0 0.00 0.00 0.00 47 1013.5
20260902001002 75 256 2.6 11.3 0.00 0.00 0.00 47 1013.4
20260902000903 75 208 2.6 8.7 0.00 0.00 0.00 47 1013.4
20260902000802 75 232 2.6 8.7 0.00 0.00 0.00 48 1013.4
20260902000702 75 230 2.6 8.7 0.00 0.00 0.00 48 1013.5
20260902000617 75 231 2.6 8.7 0.00 0.00 0.00 48 1013.5
20260902000601 75 221 2.6 8.7 0.00 0.00 0.00 48 1013.5
20260902000500 75 235 3.5 8.7 0.00 0.00 0.00 48 1013.5
20260902000359 75 260 3.5 13.9 0.00 0.00 0.00 47 1013.5
20260902000257 75 230 3.5 13.9 0.00 0.00 0.00 47 1013.4
20260902000150 75 243 3.5 13.9 0.00 0.00 0.00 47 1013.5
20260902000112 75 225 3.5 13.9 0.00 0.00 0.00 47 1013.5
20260902000051 75 236 2.6 13.9 0.00 0.00 0.00 47 1013.5
20260901235950 75 198 2.6 13.9 0.00 0.00 0.00 47 1013.5
20260901235851 75 271 2.6 13.9 0.00 0.00 0.00 47 1013.5
20260901235750 75 192 2.6 13.9 0.00 0.00 0.00 47 1013.5
20260901235646 75 325 2.6 13.9 0.00 0.00 0.00 46 1013.5
20260901235605 75 226 2.6 13.9 0.00 0.00 0.00 46 1013.5
20260901235544 75 245 2.6 13.9 0.00 0.00 0.00 46 1013.5
20260901235444 75 246 2.6 13.9 0.00 0.00 0.00 47 1013.5
20260901235344 75 240 2.6 8.7 0.00 0.00 0.00 46 1013.5
20260901235244 75 270 2.6 10.4 0.00 0.00 0.00 46 1013.5
20260901235140 75 246 2.6 10.4 0.00 0.00 0.00 47 1013.5
20260901235059 75 246 2.6 10.4 0.00 0.00 0.00 47 1013.5
20260901235042 75 245 2.6 10.4 0.00 0.00 0.00 47 1013.5
20260901234940 75 240 2.6 10.4 0.00 0.00 0.00 47 1013.6
20260901234840 75 231 2.6 10.4 0.00 0.00 0.00 47 1013.5
20260901234738 75 226 3.5 10.4 0.00 0.00 0.00 47 1013.5
20260901234632 75 233 3.5 10.4 0.00 0.00 0.00 45 1013.6
20260901234554 75 240 3.5 11.3 0.00 0.00 0.00 45 1013.6
20260901234538 75 235 3.5 11.3 0.00 0.00 0.00 46 1013.6
20260901234432 76 267 3.5 11.3 0.00 0.00 0.00 45 1013.6
20260901234332 76 225 3.5 11.3 0.00 0.00 0.00 45 1013.5
20260901234231 76 233 2.6 11.3 0.00 0.00 0.00 45 1013.5
20260901234126 76 207 3.5 11.3 0.00 0.00 0.00 46 1013.5
20260901234048 76 250 3.5 11.3 0.00 0.00 0.00 46 1013.5
20260901234026 76 224 3.5 11.3 0.00 0.00 0.00 46 1013.5
20260901233927 76 248 4.3 11.3 0.00 0.00 0.00 46 1013.5
20260901233827 76 229 4.3 13.9 0.00 0.00 0.00 45 1013.5
20260901233726 76 259 4.3 13.9 0.00 0.00 0.00 45 1013.5
20260901233623 76 149 4.3 13.9 0.00 0.00 0.00 46 1013.5
20260901233542 76 159 4.3 13.9 0.00 0.00 0.00 46 1013.5
20260901233520 76 231 4.3 13.9 0.00 0.00 0.00 46 1013.5
20260901233421 76 273 4.3 13.9 0.00 0.00 0.00 46 1013.6
20260901233320 76 273 4.3 13.9 0.00 0.00 0.00 45 1013.6
20260901233259 76 248 3.5 13.9 0.00 0.00 0.00 45 1013.6
20260901233220 76 228 4.3 13.9 0.00 0.00 0.00 45 1013.6
20260901233154 76 225 3.5 13.9 0.00 0.00 0.00 45 1013.6
20260901233016 76 228 3.5 13.9 0.00 0.00 0.00 45 1013.6
20260901232914 76 226 3.5 13.9 0.00 0.00 0.00 45 1013.6
20260901232814 76 300 2.6 10.4 0.00 0.00 0.00 44 1013.6
20260901232714 77 214 1.7 9.6 0.00 0.00 0.00 44 1013.6
20260901232609 77 148 1.7 9.6 0.00 0.00 0.00 44 1013.7
20260901232540 77 249 1.7 9.6 0.00 0.00 0.00 44 1013.7
20260901232508 77 182 1.7 9.6 0.00 0.00 0.00 44 1013.6
20260901232408 77 217 1.7 9.6 0.00 0.00 0.00 44 1013.7
20260901232308 77 322 1.7 6.1 0.00 0.00 0.00 45 1013.6
20260901232208 77 212 1.7 6.1 0.00 0.00 0.00 45 1013.7
20260901232102 76 226 1.7 8.7 0.00 0.00 0.00 45 1013.6
20260901232040 76 204 1.7 8.7 0.00 0.00 0.00 45 1013.6
20260901232003 76 240 2.6 8.7 0.00 0.00 0.00 45 1013.7
20260901231902 76 212 2.6 8.7 0.00 0.00 0.00 45 1013.7
20260901231803 76 270 2.6 8.7 0.00 0.00 0.00 45 1013.7
20260901231702 76 188 2.6 8.7 0.00 0.00 0.00 45 1013.7
20260901231557 76 248 2.6 8.7 0.00 0.00 0.00 45 1013.7
20260901231541 76 250 2.6 8.7 0.00 0.00 0.00 45 1013.7
20260901231456 76 250 2.6 8.7 0.00 0.00 0.00 45 1013.7
20260901231358 76 217 2.6 8.7 0.00 0.00 0.00 45 1013.7
20260901231256 76 256 3.5 9.6 0.00 0.00 0.00 45 1013.7
20260901231156 76 224 3.5 9.6 0.00 0.00 0.00 45 1013.8
20260901231054 76 229 3.5 9.6 0.00 0.00 0.00 44 1013.8
20260901231039 76 259 3.5 9.6 0.00 0.00 0.00 45 1013.8
20260901230955 76 252 3.5 9.6 0.00 0.00 0.00 45 1013.8
20260901230854 76 280 3.5 9.6 0.00 0.00 0.00 45 1013.7
20260901230752 76 280 3.5 9.6 0.00 0.00 0.00 45 1013.8
20260901230652 76 280 3.5 9.6 0.00 0.00 0.00 44 1013.8
20260901230603 76 236 2.6 9.6 0.00 0.00 0.00 45 1013.8
20260901230553 76 291 2.6 9.6 0.00 0.00 0.00 44 1013.8
20260901230452 76 198 3.5 9.6 0.00 0.00 0.00 44 1013.8
20260901230352 76 236 2.6 9.6 0.00 0.00 0.00 45 1013.9
20260901230250 76 236 2.6 7.8 0.00 0.00 0.00 44 1013.9
20260901230151 76 207 2.6 7.8 0.00 0.00 0.00 44 1013.9
20260901230050 76 177 3.5 10.4 0.00 0.00 0.00 44 1013.9
20260901225950 76 229 3.5 10.4 0.00 0.00 0.00 44 1013.8
20260901225850 76 129 4.3 11.3 0.00 0.00 0.00 44 1013.9
20260901225751 76 160 4.3 11.3 0.00 0.00 0.00 45 1013.9
20260901225650 76 312 4.3 11.3 0.00 0.00 0.00 45 1013.9
20260901225550 76 30 4.3 11.3 0.00 0.00 0.00 45 1013.9
20260901225535 76 250 4.3 11.3 0.00 0.00 0.00 45 1013.9
20260901225448 76 233 4.3 11.3 0.00 0.00 0.00 44 1013.9
20260901225348 76 143 4.3 11.3 0.00 0.00 0.00 45 1013.9
20260901225248 76 228 4.3 11.3 0.00 0.00 0.00 44 1013.9
20260901225148 76 273 4.3 11.3 0.00 0.00 0.00 43 1013.9
20260901225049 76 263 4.3 11.3 0.00 0.00 0.00 44 1013.9
20260901225036 76 226 4.3 11.3 0.00 0.00 0.00 44 1013.9
20260901224948 76 231 3.5 11.3 0.00 0.00 0.00 44 1013.9
20260901224842 76 243 3.5 11.3 0.00 0.00 0.00 44 1013.9
20260901224743 76 164 3.5 9.6 0.00 0.00 0.00 44 1013.8
20260901224643 76 112 3.5 9.6 0.00 0.00 0.00 43 1013.8
20260901224547 76 242 3.5 9.6 0.00 0.00 0.00 43 1013.9
20260901224537 76 229 3.5 9.6 0.00 0.00 0.00 43 1013.9
20260901224442 76 232 3.5 9.6 0.00 0.00 0.00 44 1013.8
20260901224341 76 161 2.6 8.7 0.00 0.00 0.00 44 1013.9
20260901224240 76 225 2.6 8.7 0.00 0.00 0.00 44 1013.9
20260901224138 76 245 2.6 8.7 0.00 0.00 0.00 44 1013.9
20260901224041 76 242 2.6 8.7 0.00 0.00 0.00 43 1014.0
20260901223936 76 266 2.6 9.6 0.00 0.00 0.00 44 1014.0
20260901223830 76 250 2.6 9.6 0.00 0.00 0.00 44 1013.9
20260901223731 76 260 2.6 9.6 0.00 0.00 0.00 44 1014.0
20260901223631 76 259 2.6 9.6 0.00 0.00 0.00 44 1014.0
20260901223540 76 291 2.6 9.6 0.00 0.00 0.00 45 1014.0
20260901223534 76 228 2.6 9.6 0.00 0.00 0.00 45 1014.0
20260901223430 76 300 2.6 9.6 0.00 0.00 0.00 45 1014.0
20260901223325 76 304 3.5 9.6 0.00 0.00 0.00 45 1014.0
20260901223225 76 225 3.5 9.6 0.00 0.00 0.00 44 1014.0
20260901223124 76 228 3.5 9.6 0.00 0.00 0.00 44 1014.0
20260901223034 76 225 4.3 12.2 0.00 0.00 0.00 45 1014.0
20260901223025 76 239 4.3 12.2 0.00 0.00 0.00 45 1014.0
20260901222924 76 242 5.2 12.2 0.00 0.00 0.00 44 1014.1
20260901222819 76 236 5.2 12.2 0.00 0.00 0.00 44 1014.0
20260901222718 76 240 5.2 12.2 0.00 0.00 0.00 44 1014.0
20260901222618 76 229 4.3 12.2 0.00 0.00 0.00 44 1014.1
20260901222535 76 138 4.3 12.2 0.00 0.00 0.00 44 1014.1
20260901222518 76 207 4.3 12.2 0.00 0.00 0.00 45 1014.1
20260901222418 76 198 4.3 12.2 0.00 0.00 0.00 44 1014.1
20260901222312 76 250 3.5 12.2 0.00 0.00 0.00 44 1014.1
20260901222212 76 279 3.5 12.2 0.00 0.00 0.00 44 1014.1
20260901222112 76 253 2.6 12.2 0.00 0.00 0.00 44 1014.1
20260901222033 76 208 2.6 9.6 0.00 0.00 0.00 44 1014.1
20260901222012 76 128 2.6 9.6 0.00 0.00 0.00 44 1014.1
20260901221912 76 250 1.7 9.6 0.00 0.00 0.00 45 1014.1
20260901221811 76 314 1.7 7.8 0.00 0.00 0.00 45 1014.1
20260901221710 76 328 1.7 7.8 0.00 0.00 0.00 45 1014.2
20260901221611 76 358 1.7 7.8 0.00 0.00 0.00 45 1014.2
20260901221535 76 326 1.7 7.8 0.00 0.00 0.00 45 1014.2
20260901221509 76 236 1.7 7.8 0.00 0.00 0.00 45 1014.3
20260901221406 76 286 1.7 7.8 0.00 0.00 0.00 45 1014.3
20260901221304 76 267 1.7 11.3 0.00 0.00 0.00 44 1014.3
20260901221300 76 242 1.7 9.6 0.00 0.00 0.00 45 1014.3
20260901221200 76 239 1.7 11.3 0.00 0.00 0.00 44 1014.3
20260901221143 76 165 1.7 11.3 0.00 0.00 0.00 44 1014.3
20260901221000 76 252 1.7 11.3 0.00 0.00 0.00 45 1014.4
20260901220900 76 151 1.7 11.3 0.00 0.00 0.00 44 1014.3
20260901220754 76 211 2.6 11.3 0.00 0.00 0.00 45 1014.4
20260901220654 76 307 2.6 11.3 0.00 0.00 0.00 45 1014.3
20260901220554 76 308 2.6 11.3 0.00 0.00 0.00 45 1014.4
20260901220534 76 307 2.6 11.3 0.00 0.00 0.00 45 1014.4
20260901220454 76 287 2.6 11.3 0.00 0.00 0.00 44 1014.5
20260901220356 76 259 2.6 11.3 0.00 0.00 0.00 44 1014.4
20260901220252 76 231 2.6 7.8 0.00 0.00 0.00 45 1014.4
20260901220243 76 203 2.6 7.8 0.00 0.00 0.00 46 1014.3
20260901220150 76 233 2.6 7.8 0.00 0.00 0.00 46 1014.3
20260901220136 76 270 2.6 7.8 0.00 0.00 0.00 46 1014.3
20260901215948 76 144 2.6 7.8 0.00 0.00 0.00 46 1014.4
20260901215846 76 238 2.6 8.7 0.00 0.00 0.00 46 1014.3
20260901215748 75 236 2.6 8.7 0.00 0.00 0.00 47 1014.3
20260901215742 76 197 2.6 8.7 0.00 0.00 0.00 47 1014.3
20260901215640 75 219 2.6 8.7 0.00 0.00 0.00 47 1014.3
20260901215630 75 233 2.6 8.7 0.00 0.00 0.00 47 1014.3
20260901215441 75 215 3.5 9.6 0.00 0.00 0.00 47 1014.3
20260901215340 75 230 3.5 12.2 0.00 0.00 0.00 47 1014.3
20260901215237 75 228 4.3 12.2 0.00 0.00 0.00 47 1014.4
20260901215136 75 153 4.3 12.2 0.00 0.00 0.00 46 1014.5
20260901215037 74 219 5.2 12.2 0.00 0.00 0.00 47 1014.4
20260901215013 74 231 5.2 12.2 0.00 0.00 0.00 46 1014.4
20260901214936 75 162 5.2 12.2 0.00 0.00 0.00 46 1014.4
20260901214833 75 259 4.3 12.2 0.00 0.00 0.00 45 1014.4
20260901214730 75 203 4.3 12.2 0.00 0.00 0.00 46 1014.5
20260901214629 75 242 3.5 12.2 0.00 0.00 0.00 46 1014.5
20260901214531 75 253 3.5 12.2 0.00 0.00 0.00 45 1014.5
20260901214508 76 238 2.6 12.2 0.00 0.00 0.00 45 1014.5
20260901214428 76 228 2.6 10.4 0.00 0.00 0.00 46 1014.5
20260901214329 76 193 2.6 10.4 0.00 0.00 0.00 46 1014.5
20260901214226 76 211 0.9 5.2 0.00 0.00 0.00 47 1014.4
20260901214222 76 225 1.7 10.4 0.00 0.00 0.00 46 1014.5
20260901214122 76 184 1.7 8.7 0.00 0.00 0.00 45 1014.5
20260901214113 76 229 0.9 5.2 0.00 0.00 0.00 46 1014.4
20260901213922 76 190 0.9 5.2 0.00 0.00 0.00 47 1014.4
20260901213716 76 259 1.7 6.1 0.00 0.00 0.00 46 1014.4
20260901213616 76 257 1.7 6.1 0.00 0.00 0.00 46 1014.5
20260901213517 76 257 1.7 7.0 0.00 0.00 0.00 47 1014.5
20260901213455 76 257 1.7 7.0 0.00 0.00 0.00 47 1014.5
20260901213416 76 259 1.7 9.6 0.00 0.00 0.00 47 1014.5
20260901213317 76 305 2.6 10.4 0.00 0.00 0.00 48 1014.5
20260901213210 76 338 2.6 10.4 0.00 0.00 0.00 47 1014.5
20260901213111 76 316 2.6 10.4 0.00 0.00 0.00 47 1014.5
20260901213011 75 232 2.6 10.4 0.00 0.00 0.00 47 1014.6
20260901212949 75 224 2.6 10.4 0.00 0.00 0.00 47 1014.6
20260901212910 75 238 2.6 10.4 0.00 0.00 0.00 49 1014.5
20260901212810 75 200 2.6 10.4 0.00 0.00 0.00 48 1014.5
20260901212714 75 252 2.6 10.4 0.00 0.00 0.00 46 1014.5
20260901212704 75 67 2.6 10.4 0.00 0.00 0.00 47 1014.4
20260901212604 75 249 3.5 10.4 0.00 0.00 0.00 47 1014.5
20260901212554 75 248 2.6 10.4 0.00 0.00 0.00 46 1014.5
20260901212404 75 225 2.6 9.6 0.00 0.00 0.00 47 1014.5
20260901212306 75 240 3.5 9.6 0.00 0.00 0.00 47 1014.5
20260901212158 75 266 3.5 9.6 0.00 0.00 0.00 47 1014.4
20260901212100 75 284 3.5 9.6 0.00 0.00 0.00 48 1014.5
20260901211958 75 284 3.5 9.6 0.00 0.00 0.00 49 1014.5
20260901211937 75 270 3.5 9.6 0.00 0.00 0.00 48 1014.5
20260901211859 75 97 3.5 9.6 0.00 0.00 0.00 48 1014.4
20260901211758 75 165 3.5 9.6 0.00 0.00 0.00 48 1014.4
20260901211652 74 159 3.5 9.6 0.00 0.00 0.00 48 1014.4
20260901211552 74 203 3.5 9.6 0.00 0.00 0.00 48 1014.4
20260901211452 74 219 4.3 9.6 0.00 0.00 0.00 48 1014.5
20260901211431 75 217 4.3 9.6 0.00 0.00 0.00 48 1014.5
20260901211352 75 231 4.3 9.6 0.00 0.00 0.00 48 1014.5
20260901211252 75 218 4.3 9.6 0.00 0.00 0.00 49 1014.5
20260901211149 75 136 4.3 9.6 0.00 0.00 0.00 48 1014.5
20260901211048 75 219 3.5 9.6 0.00 0.00 0.00 48 1014.5
20260901210947 74 199 3.5 9.6 0.00 0.00 0.00 49 1014.5
20260901210925 74 198 3.5 9.6 0.00 0.00 0.00 49 1014.5
20260901210846 74 215 3.5 9.6 0.00 0.00 0.00 49 1014.6
20260901210746 75 232 3.5 9.6 0.00 0.00 0.00 48 1014.5
20260901210640 75 288 2.6 9.6 0.00 0.00 0.00 48 1014.5
20260901210541 75 245 2.6 9.6 0.00 0.00 0.00 47 1014.6
20260901210440 76 281 2.6 9.6 0.00 0.00 0.00 47 1014.6
20260901210419 76 242 2.6 9.6 0.00 0.00 0.00 48 1014.6
20260901210341 76 239 2.6 9.6 0.00 0.00 0.00 48 1014.6
20260901210240 76 246 2.6 9.6 0.00 0.00 0.00 49 1014.5
20260901210142 75 221 3.5 9.6 0.00 0.00 0.00 48 1014.5
20260901210138 75 215 2.6 9.6 0.00 0.00 0.00 49 1014.5
20260901210038 75 233 2.6 9.6 0.00 0.00 0.00 48 1014.5
20260901210024 75 232 3.5 9.6 0.00 0.00 0.00 48 1014.6
20260901205836 74 281 3.5 9.6 0.00 0.00 0.00 48 1014.5
20260901205734 74 120 3.5 9.6 0.00 0.00 0.00 48 1014.6
20260901205628 74 129 3.5 9.6 0.00 0.00 0.00 48 1014.6
20260901205532 74 171 3.5 9.6 0.00 0.00 0.00 49 1014.6
20260901205428 74 208 3.5 9.6 0.00 0.00 0.00 48 1014.7
20260901205407 74 201 2.6 9.6 0.00 0.00 0.00 49 1014.7
20260901205328 74 243 2.6 9.6 0.00 0.00 0.00 49 1014.7
20260901205229 74 99 2.6 9.6 0.00 0.00 0.00 48 1014.8
20260901205123 74 238 3.5 9.6 0.00 0.00 0.00 48 1014.7
20260901205023 74 235 3.5 9.6 0.00 0.00 0.00 49 1014.8
20260901204923 74 231 2.6 9.6 0.00 0.00 0.00 51 1014.8
20260901204901 74 240 2.6 9.6 0.00 0.00 0.00 51 1014.8
20260901204823 74 153 2.6 9.6 0.00 0.00 0.00 51 1014.8
20260901204723 73 187 3.5 9.6 0.00 0.00 0.00 51 1014.8
20260901204619 73 129 3.5 9.6 0.00 0.00 0.00 51 1014.8
20260901204516 73 252 3.5 9.6 0.00 0.00 0.00 50 1014.8
20260901204416 74 211 3.5 9.6 0.00 0.00 0.00 50 1014.9
20260901204357 74 246 3.5 9.6 0.00 0.00 0.00 50 1014.9
20260901204316 74 301 3.5 9.6 0.00 0.00 0.00 50 1014.9
20260901204216 74 212 2.6 9.6 0.00 0.00 0.00 50 1014.9
20260901204116 73 200 2.6 11.3 0.00 0.00 0.00 52 1014.9
20260901204111 74 177 2.6 8.7 0.00 0.00 0.00 51 1014.9
20260901204010 74 153 2.6 8.7 0.00 0.00 0.00 52 1014.9
20260901204000 73 238 2.6 11.3 0.00 0.00 0.00 52 1014.9
20260901203811 73 191 2.6 11.3 0.00 0.00 0.00 52 1014.9
20260901203710 73 173 1.7 11.3 0.00 0.00 0.00 51 1014.9
20260901203609 73 245 1.7 11.3 0.00 0.00 0.00 52 1014.9
20260901203509 73 276 1.7 11.3 0.00 0.00 0.00 52 1014.9
20260901203409 73 226 1.7 11.3 0.00 0.00 0.00 52 1014.9
20260901203347 73 222 1.7 11.3 0.00 0.00 0.00 52 1014.9
20260901203307 73 243 1.7 11.3 0.00 0.00 0.00 52 1014.9
20260901203205 73 153 1.7 11.3 0.00 0.00 0.00 53 1015.0
20260901203107 73 221 1.7 7.8 0.00 0.00 0.00 52 1015.0
20260901203102 73 231 1.7 11.3 0.00 0.00 0.00 52 1014.9
20260901202959 73 136 1.7 11.3 0.00 0.00 0.00 52 1015.0
20260901202948 73 208 1.7 10.4 0.00 0.00 0.00 52 1015.0
20260901202758 73 217 1.7 9.6 0.00 0.00 0.00 53 1014.9
20260901202658 73 241 2.6 10.4 0.00 0.00 0.00 52 1014.9
20260901202555 73 246 2.6 10.4 0.00 0.00 0.00 52 1014.9
20260901202452 73 243 2.6 10.4 0.00 0.00 0.00 52 1014.9
20260901202352 73 260 2.6 10.4 0.00 0.00 0.00 53 1014.9
20260901202332 73 257 2.6 10.4 0.00 0.00 0.00 53 1014.9
20260901202253 73 228 3.5 10.4 0.00 0.00 0.00 53 1014.9
20260901202152 73 267 3.5 10.4 0.00 0.00 0.00 53 1015.0
20260901202047 73 245 3.5 10.4 0.00 0.00 0.00 52 1014.9
20260901201947 73 239 3.5 10.4 0.00 0.00 0.00 52 1015.0
20260901201847 73 271 3.5 10.4 0.00 0.00 0.00 51 1015.0
20260901201825 73 239 3.5 10.4 0.00 0.00 0.00 51 1015.0
20260901201746 73 252 3.5 8.7 0.00 0.00 0.00 52 1015.1
20260901201646 73 252 3.5 8.7 0.00 0.00 0.00 52 1015.1
20260901201546 74 216 3.5 8.7 0.00 0.00 0.00 51 1015.0
20260901201542 73 160 3.5 8.7 0.00 0.00 0.00 52 1015.0
20260901201442 74 205 3.5 8.7 0.00 0.00 0.00 52 1015.1
20260901201433 74 229 3.5 8.7 0.00 0.00 0.00 51 1015.0
20260901201240 74 243 2.6 8.7 0.00 0.00 0.00 51 1015.1
20260901201140 74 193 2.6 7.8 0.00 0.00 0.00 52 1015.1
20260901201037 74 233 2.6 7.8 0.00 0.00 0.00 52 1015.1
20260901200934 74 243 2.6 7.8 0.00 0.00 0.00 52 1015.1
20260901200834 74 291 2.6 7.8 0.00 0.00 0.00 52 1015.1
20260901200814 74 242 1.7 7.8 0.00 0.00 0.00 52 1015.2
20260901200735 74 238 1.7 7.8 0.00 0.00 0.00 52 1015.2
20260901200634 74 228 1.7 7.8 0.00 0.00 0.00 51 1015.2
20260901200534 74 307 1.7 7.8 0.00 0.00 0.00 51 1015.1
20260901200428 74 239 1.7 7.8 0.00 0.00 0.00 52 1015.2
20260901200328 74 236 1.7 7.8 0.00 0.00 0.00 52 1015.2
20260901200307 74 243 1.7 7.8 0.00 0.00 0.00 52 1015.2
20260901200229 74 204 1.7 7.0 0.00 0.00 0.00 53 1015.2
20260901200128 74 210 1.7 7.8 0.00 0.00 0.00 54 1015.2
20260901200032 73 208 1.7 7.8 0.00 0.00 0.00 54 1015.1
20260901195926 73 239 2.6 7.8 0.00 0.00 0.00 53 1015.1
20260901195826 73 239 2.6 7.8 0.00 0.00 0.00 54 1015.2
20260901195801 73 238 2.6 7.8 0.00 0.00 0.00 54 1015.1
20260901195725 73 239 2.6 7.8 0.00 0.00 0.00 54 1015.1
20260901195623 73 239 3.5 7.8 0.00 0.00 0.00 54 1015.2
20260901195516 73 242 3.5 7.8 0.00 0.00 0.00 54 1015.2
20260901195416 73 217 3.5 7.8 0.00 0.00 0.00 52 1015.2
20260901195316 73 229 3.5 7.8 0.00 0.00 0.00 52 1015.3
20260901195255 74 214 2.6 7.8 0.00 0.00 0.00 52 1015.3
20260901195217 74 166 2.6 7.8 0.00 0.00 0.00 52 1015.3
20260901195117 74 224 1.7 7.8 0.00 0.00 0.00 53 1015.3
20260901195017 73 234 1.7 7.8 0.00 0.00 0.00 54 1015.3
20260901194915 73 236 1.7 7.8 0.00 0.00 0.00 54 1015.3
20260901194815 73 233 1.7 7.8 0.00 0.00 0.00 54 1015.3
20260901194749 73 198 2.6 7.8 0.00 0.00 0.00 54 1015.3
20260901194729 72 226 3.5 9.6 0.00 0.00 0.00 57 1015.3
20260901194714 73 222 2.6 8.7 0.00 0.00 0.00 54 1015.3
20260901194621 73 217 2.6 8.7 0.00 0.00 0.00 54 1015.3
20260901194507 73 224 2.6 8.7 0.00 0.00 0.00 54 1015.2
20260901194406 73 201 3.5 8.7 0.00 0.00 0.00 57 1015.3
20260901194354 72 201 3.5 8.7 0.00 0.00 0.00 57 1015.3
20260901194205 72 238 4.3 11.3 0.00 0.00 0.00 56 1015.3
20260901194105 72 238 4.3 11.3 0.00 0.00 0.00 56 1015.3
20260901193958 72 239 4.3 11.3 0.00 0.00 0.00 55 1015.4
20260901193858 72 238 3.5 11.3 0.00 0.00 0.00 55 1015.4
20260901193758 72 219 3.5 11.3 0.00 0.00 0.00 55 1015.4
20260901193738 72 224 3.5 11.3 0.00 0.00 0.00 55 1015.4
20260901193659 72 246 3.5 11.3 0.00 0.00 0.00 55 1015.4
20260901193559 72 225 2.6 11.3 0.00 0.00 0.00 55 1015.4
20260901193456 73 242 2.6 11.3 0.00 0.00 0.00 55 1015.4
20260901193356 73 183 2.6 11.3 0.00 0.00 0.00 55 1015.4
20260901193256 73 233 1.7 11.3 0.00 0.00 0.00 55 1015.4
20260901193231 73 248 1.7 11.3 0.00 0.00 0.00 55 1015.4
20260901193154 73 255 1.7 6.1 0.00 0.00 0.00 57 1015.4
20260901193052 73 232 1.7 6.1 0.00 0.00 0.00 57 1015.4
20260901192951 73 221 1.7 5.2 0.00 0.00 0.00 58 1015.3
20260901192936 73 291 2.6 7.8 0.00 0.00 0.00 57 1015.5
20260901192850 73 252 1.7 6.1 0.00 0.00 0.00 57 1015.4
20260901192830 73 252 1.7 6.1 0.00 0.00 0.00 57 1015.5
20260901192819 73 245 1.7 7.0 0.00 0.00 0.00 57 1015.5
20260901192648 73 278 1.7 7.0 0.00 0.00 0.00 57 1015.4
20260901192555 73 238 1.7 7.0 0.00 0.00 0.00 57 1015.5
20260901192440 73 255 1.7 7.0 0.00 0.00 0.00 57 1015.5
20260901192344 73 226 2.6 7.8 0.00 0.00 0.00 57 1015.5
20260901192330 73 215 2.6 7.8 0.00 0.00 0.00 57 1015.4
20260901192141 73 291 2.6 7.8 0.00 0.00 0.00 57 1015.5
20260901192041 73 239 2.6 7.8 0.00 0.00 0.00 57 1015.5
20260901191941 73 243 2.6 7.8 0.00 0.00 0.00 57 1015.4
20260901191936 73 276 2.6 7.8 0.00 0.00 0.00 56 1015.5
20260901191837 73 203 2.6 7.8 0.00 0.00 0.00 57 1015.5
20260901191824 73 217 2.6 7.8 0.00 0.00 0.00 57 1015.5
20260901191637 73 243 2.6 7.8 0.00 0.00 0.00 57 1015.4
20260901191535 73 200 2.6 7.8 0.00 0.00 0.00 57 1015.5
20260901191428 73 233 1.7 7.8 0.00 0.00 0.00 57 1015.5
20260901191328 73 235 1.7 7.0 0.00 0.00 0.00 56 1015.5
20260901191228 73 222 1.7 7.0 0.00 0.00 0.00 57 1015.5
20260901191208 73 238 2.6 7.0 0.00 0.00 0.00 57 1015.5
20260901191128 72 275 2.6 9.6 0.00 0.00 0.00 57 1015.5
20260901191029 72 219 2.6 10.4 0.00 0.00 0.00 58 1015.5
20260901190930 71 225 2.6 10.4 0.00 0.00 0.00 58 1015.5
20260901190924 72 240 2.6 10.4 0.00 0.00 0.00 58 1015.5
20260901190825 72 290 2.6 10.4 0.00 0.00 0.00 58 1015.5
20260901190811 71 307 2.6 10.4 0.00 0.00 0.00 58 1015.5
20260901190622 71 225 2.6 10.4 0.00 0.00 0.00 59 1015.5
20260901190522 71 257 3.5 10.4 0.00 0.00 0.00 59 1015.5
20260901190427 71 230 3.5 10.4 0.00 0.00 0.00 59 1015.6
20260901190317 71 248 3.5 10.4 0.00 0.00 0.00 58 1015.6
20260901190217 71 218 3.5 10.4 0.00 0.00 0.00 59 1015.6
20260901190156 71 215 2.6 10.4 0.00 0.00 0.00 59 1015.6
20260901190117 71 231 2.6 10.4 0.00 0.00 0.00 59 1015.6
20260901190016 71 282 2.6 10.4 0.00 0.00 0.00 59 1015.6
20260901185914 71 230 2.6 10.4 0.00 0.00 0.00 61 1015.6
20260901185814 71 210 2.6 10.4 0.00 0.00 0.00 61 1015.6
20260901185713 70 217 2.6 10.4 0.00 0.00 0.00 61 1015.6
20260901185650 70 239 2.6 10.4 0.00 0.00 0.00 61 1015.6
20260901185613 70 211 2.6 10.4 0.00 0.00 0.00 60 1015.6
20260901185511 70 172 2.6 8.7 0.00 0.00 0.00 61 1015.7
20260901185404 70 231 2.6 8.7 0.00 0.00 0.00 61 1015.7
20260901185306 70 238 2.6 7.8 0.00 0.00 0.00 61 1015.6
20260901185205 70 273 2.6 7.8 0.00 0.00 0.00 62 1015.7
20260901185143 70 233 2.6 7.8 0.00 0.00 0.00 62 1015.7
20260901185104 70 242 2.6 7.8 0.00 0.00 0.00 61 1015.7
20260901185006 70 239 2.6 7.8 0.00 0.00 0.00 61 1015.7
20260901184901 70 264 2.6 9.6 0.00 0.00 0.00 62 1015.7
20260901184800 69 222 2.6 9.6 0.00 0.00 0.00 62 1015.7
20260901184701 69 218 2.6 9.6 0.00 0.00 0.00 61 1015.7
20260901184638 69 219 2.6 9.6 0.00 0.00 0.00 61 1015.7
20260901184600 69 256 2.6 9.6 0.00 0.00 0.00 61 1015.7
20260901184459 69 248 2.6 9.6 0.00 0.00 0.00 61 1015.8
20260901184357 69 212 2.6 9.6 0.00 0.00 0.00 61 1015.8
20260901184256 69 229 2.6 9.6 0.00 0.00 0.00 61 1015.8
20260901184156 69 219 2.6 9.6 0.00 0.00 0.00 61 1015.8
20260901184131 69 236 2.6 9.6 0.00 0.00 0.00 61 1015.8
20260901184056 69 236 2.6 9.6 0.00 0.00 0.00 61 1015.8
20260901183952 69 242 2.6 9.6 0.00 0.00 0.00 61 1015.8
20260901183847 70 236 2.6 8.7 0.00 0.00 0.00 61 1015.8
20260901183747 70 229 2.6 8.7 0.00 0.00 0.00 61 1015.8
20260901183625 69 236 3.5 8.7 0.00 0.00 0.00 61 1015.8
20260901183546 70 236 3.5 8.7 0.00 0.00 0.00 60 1015.8
20260901183446 70 259 3.5 10.4 0.00 0.00 0.00 61 1015.8
20260901183342 70 245 3.5 10.4 0.00 0.00 0.00 60 1015.8
20260901183242 70 243 3.5 10.4 0.00 0.00 0.00 61 1015.7
20260901183143 70 235 2.6 10.4 0.00 0.00 0.00 61 1015.7
20260901183120 70 239 2.6 10.4 0.00 0.00 0.00 61 1015.7
20260901183042 70 245 3.5 10.4 0.00 0.00 0.00 60 1015.7
20260901182940 70 235 3.5 10.4 0.00 0.00 0.00 60 1015.7
20260901182835 70 222 3.5 10.4 0.00 0.00 0.00 60 1015.7
20260901182735 70 242 3.5 10.4 0.00 0.00 0.00 60 1015.8
20260901182635 70 267 2.6 10.4 0.00 0.00 0.00 60 1015.8
20260901182614 70 203 2.6 10.4 0.00 0.00 0.00 59 1015.8
20260901182536 70 236 2.6 10.4 0.00 0.00 0.00 59 1015.8
20260901182435 70 225 1.7 8.7 0.00 0.00 0.00 61 1015.8
20260901182331 70 256 1.7 8.7 0.00 0.00 0.00 61 1015.7
20260901182229 70 223 1.7 8.7 0.00 0.00 0.00 61 1015.7
20260901182129 70 253 1.7 8.7 0.00 0.00 0.00 61 1015.7
20260901182106 70 225 1.7 8.7 0.00 0.00 0.00 61 1015.7
20260901182030 70 226 1.7 7.0 0.00 0.00 0.00 61 1015.7
20260901181927 70 243 1.7 7.0 0.00 0.00 0.00 62 1015.7
20260901181824 70 235 0.9 7.0 0.00 0.00 0.00 62 1015.8
20260901181722 70 231 0.9 7.0 0.00 0.00 0.00 64 1015.8
20260901181622 69 250 1.7 7.0 0.00 0.00 0.00 64 1015.8
20260901181602 69 250 1.7 7.0 0.00 0.00 0.00 65 1015.8
20260901181523 69 250 1.7 7.0 0.00 0.00 0.00 65 1015.8
20260901181423 69 250 1.7 7.0 0.00 0.00 0.00 63 1015.8
20260901181321 69 248 3.5 9.6 0.00 0.00 0.00 64 1015.8
20260901181317 69 235 2.6 7.8 0.00 0.00 0.00 64 1015.8
20260901181217 69 208 2.6 9.6 0.00 0.00 0.00 64 1015.8
20260901181207 69 266 2.6 9.6 0.00 0.00 0.00 65 1015.8
20260901181017 68 231 3.5 9.6 0.00 0.00 0.00 64 1015.8
20260901180917 68 229 3.5 9.6 0.00 0.00 0.00 64 1015.7
20260901180812 68 230 3.5 9.6 0.00 0.00 0.00 64 1015.8
20260901180713 68 232 3.5 9.6 0.00 0.00 0.00 63 1015.8
20260901180613 68 245 3.5 9.6 0.00 0.00 0.00 63 1015.7
20260901180550 68 233 3.5 9.6 0.00 0.00 0.00 63 1015.7
20260901180513 69 230 3.5 9.6 0.00 0.00 0.00 63 1015.8
20260901180412 69 236 3.5 9.6 0.00 0.00 0.00 62 1015.7
20260901180312 69 245 3.5 9.6 0.00 0.00 0.00 63 1015.7
20260901180212 69 228 2.6 9.6 0.00 0.00 0.00 63 1015.7
20260901180112 69 225 2.6 9.6 0.00 0.00 0.00 63 1015.7
20260901180057 69 233 2.6 9.6 0.00 0.00 0.00 63 1015.7
20260901180012 69 205 2.6 9.6 0.00 0.00 0.00 63 1015.8
20260901175912 69 219 2.6 9.6 0.00 0.00 0.00 62 1015.7
20260901175813 69 287 2.6 9.6 0.00 0.00 0.00 62 1015.7
20260901175711 69 165 2.6 8.7 0.00 0.00 0.00 63 1015.7
20260901175610 69 214 2.6 7.8 0.00 0.00 0.00 63 1015.7
20260901175538 69 141 2.6 7.8 0.00 0.00 0.00 63 1015.7
20260901175510 69 238 2.6 7.8 0.00 0.00 0.00 63 1015.7
20260901175411 69 146 2.6 7.8 0.00 0.00 0.00 63 1015.7
20260901175311 68 212 1.7 5.2 0.00 0.00 0.00 64 1015.7
20260901175209 68 226 1.7 5.2 0.00 0.00 0.00 65 1015.7
20260901175108 68 193 2.6 5.2 0.00 0.00 0.00 65 1015.7
20260901175034 68 250 2.6 5.2 0.00 0.00 0.00 65 1015.7
20260901175009 68 250 2.6 5.2 0.00 0.00 0.00 64 1015.7
20260901174909 68 224 2.6 5.2 0.00 0.00 0.00 64 1015.7
20260901174808 68 219 2.6 9.6 0.00 0.00 0.00 64 1015.6
20260901174708 68 218 2.6 9.6 0.00 0.00 0.00 65 1015.6
20260901174604 68 217 3.5 9.6 0.00 0.00 0.00 64 1015.6
20260901174533 68 228 3.5 10.4 0.00 0.00 0.00 64 1015.6
20260901174504 68 150 3.5 10.4 0.00 0.00 0.00 64 1015.6
20260901174404 68 243 3.5 10.4 0.00 0.00 0.00 64 1015.6
20260901174305 68 233 3.5 10.4 0.00 0.00 0.00 65 1015.6
20260901174203 67 233 3.5 10.4 0.00 0.00 0.00 65 1015.6
20260901174057 67 219 3.5 10.4 0.00 0.00 0.00 65 1015.7
20260901174031 67 160 3.5 10.4 0.00 0.00 0.00 65 1015.7
20260901173957 68 231 4.3 10.4 0.00 0.00 0.00 64 1015.6
20260901173858 68 235 3.5 10.4 0.00 0.00 0.00 64 1015.6
20260901173756 68 228 3.5 10.4 0.00 0.00 0.00 65 1015.6
20260901173657 68 214 3.5 10.4 0.00 0.00 0.00 65 1015.6
20260901173552 67 224 2.6 10.4 0.00 0.00 0.00 64 1015.6
20260901173533 67 228 2.6 10.4 0.00 0.00 0.00 64 1015.6
20260901173450 67 229 2.6 9.6 0.00 0.00 0.00 64 1015.6
20260901173351 67 235 2.6 9.6 0.00 0.00 0.00 64 1015.6
20260901173251 67 214 3.5 9.6 0.00 0.00 0.00 65 1015.6
20260901173150 67 246 3.5 9.6 0.00 0.00 0.00 65 1015.6
20260901173049 67 233 3.5 9.6 0.00 0.00 0.00 65 1015.6
20260901173032 67 241 3.5 9.6 0.00 0.00 0.00 65 1015.6
20260901172948 67 242 2.6 9.6 0.00 0.00 0.00 66 1015.6
20260901172846 67 155 2.6 9.6 0.00 0.00 0.00 66 1015.6
20260901172747 67 222 2.6 9.6 0.00 0.00 0.00 66 1015.5
20260901172645 67 228 3.5 9.6 0.00 0.00 0.00 66 1015.6
20260901172543 67 156 3.5 9.6 0.00 0.00 0.00 66 1015.6
20260901172442 67 236 3.5 9.6 0.00 0.00 0.00 66 1015.6
20260901172340 67 264 4.3 9.6 0.00 0.00 0.00 66 1015.6
20260901172253 67 242 4.3 8.7 0.00 0.00 0.00 67 1015.5
20260901172241 67 218 3.5 8.7 0.00 0.00 0.00 66 1015.6
20260901172149 67 264 4.3 8.7 0.00 0.00 0.00 67 1015.6
20260901172139 67 242 4.3 8.7 0.00 0.00 0.00 67 1015.5
20260901171932 67 246 4.3 8.7 0.00 0.00 0.00 67 1015.5
20260901171833 67 235 5.2 8.7 0.00 0.00 0.00 67 1015.6
20260901171732 67 245 5.2 10.4 0.00 0.00 0.00 66 1015.5
20260901171632 67 208 5.2 10.4 0.00 0.00 0.00 67 1015.5
20260901171528 67 235 4.3 10.4 0.00 0.00 0.00 66 1015.5
20260901171426 67 236 4.3 10.4 0.00 0.00 0.00 66 1015.5
20260901171327 67 169 4.3 10.4 0.00 0.00 0.00 66 1015.6
20260901171227 67 193 3.5 10.4 0.00 0.00 0.00 66 1015.5
20260901171126 67 211 3.5 10.4 0.00 0.00 0.00 66 1015.6
20260901171044 68 214 3.5 10.4 0.00 0.00 0.00 66 1015.5
20260901171023 68 222 3.5 10.4 0.00 0.00 0.00 67 1015.5
20260901170920 68 210 3.5 10.4 0.00 0.00 0.00 66 1015.5
20260901170822 68 243 3.5 10.4 0.00 0.00 0.00 67 1015.5
20260901170751 68 253 2.6 7.8 0.00 0.00 0.00 68 1015.4
20260901170721 68 235 2.6 7.8 0.00 0.00 0.00 67 1015.5
20260901170642 68 259 2.6 7.8 0.00 0.00 0.00 68 1015.4
20260901170515 68 228 2.6 7.8 0.00 0.00 0.00 67 1015.4
20260901170415 68 224 2.6 7.8 0.00 0.00 0.00 68 1015.4
20260901170314 67 249 2.6 7.8 0.00 0.00 0.00 69 1015.4
20260901170215 67 203 3.5 7.8 0.00 0.00 0.00 69 1015.4
20260901170114 67 203 3.5 7.8 0.00 0.00 0.00 69 1015.4
20260901170030 67 210 3.5 7.8 0.00 0.00 0.00 69 1015.4
20260901170007 67 150 3.5 7.8 0.00 0.00 0.00 69 1015.4
20260901165906 67 212 3.5 7.8 0.00 0.00 0.00 69 1015.5
20260901165806 67 236 3.5 7.8 0.00 0.00 0.00 70 1015.5
20260901165706 66 242 3.5 7.8 0.00 0.00 0.00 71 1015.4
20260901165607 66 158 3.5 7.8 0.00 0.00 0.00 71 1015.4
20260901165528 66 200 3.5 7.8 0.00 0.00 0.00 70 1015.4
20260901165503 66 221 3.5 7.8 0.00 0.00 0.00 70 1015.4
20260901165400 66 233 4.3 8.7 0.00 0.00 0.00 69 1015.4
20260901165300 66 225 4.3 8.7 0.00 0.00 0.00 70 1015.4
20260901165201 66 167 4.3 8.7 0.00 0.00 0.00 69 1015.5
20260901165100 66 248 4.3 8.7 0.00 0.00 0.00 69 1015.5
20260901165028 66 241 4.3 8.7 0.00 0.00 0.00 68 1015.5
20260901164955 67 217 4.3 8.7 0.00 0.00 0.00 68 1015.5
20260901164854 67 218 4.3 8.7 0.00 0.00 0.00 68 1015.5
20260901164801 67 141 3.5 8.7 0.00 0.00 0.00 69 1015.5
20260901164754 67 231 4.3 8.7 0.00 0.00 0.00 69 1015.5
20260901164655 67 226 3.5 8.7 0.00 0.00 0.00 69 1015.5
20260901164639 67 150 3.5 8.7 0.00 0.00 0.00 69 1015.5
20260901164451 67 157 3.5 8.7 0.00 0.00 0.00 69 1015.5
20260901164349 67 210 3.5 7.8 0.00 0.00 0.00 69 1015.5
20260901164248 67 253 2.6 7.0 0.00 0.00 0.00 69 1015.4
20260901164148 67 259 2.6 7.0 0.00 0.00 0.00 69 1015.4
20260901164048 67 224 2.6 6.1 0.00 0.00 0.00 68 1015.4
20260901164028 67 236 2.6 6.1 0.00 0.00 0.00 68 1015.4
20260901163946 67 231 2.6 6.1 0.00 0.00 0.00 68 1015.5
20260901163847 67 216 2.6 6.1 0.00 0.00 0.00 70 1015.5
20260901163744 67 158 2.6 6.1 0.00 0.00 0.00 70 1015.5
20260901163644 66 238 2.6 6.1 0.00 0.00 0.00 70 1015.5
20260901163542 66 229 2.6 6.1 0.00 0.00 0.00 69 1015.5
20260901163528 66 167 2.6 6.1 0.00 0.00 0.00 69 1015.5
20260901163438 66 210 2.6 6.1 0.00 0.00 0.00 69 1015.5
20260901163339 66 146 2.6 6.1 0.00 0.00 0.00 70 1015.4
20260901163238 66 167 2.6 6.1 0.00 0.00 0.00 70 1015.4
20260901163139 66 236 2.6 6.1 0.00 0.00 0.00 70 1015.5
20260901163037 66 195 2.6 5.2 0.00 0.00 0.00 71 1015.4
20260901163026 66 167 2.6 5.2 0.00 0.00 0.00 71 1015.4
20260901162930 66 142 2.6 5.2 0.00 0.00 0.00 71 1015.4
20260901162831 65 248 2.6 7.0 0.00 0.00 0.00 72 1015.4
20260901162751 65 198 2.6 7.0 0.00 0.00 0.00 70 1015.3
20260901162728 65 224 2.6 7.0 0.00 0.00 0.00 71 1015.4
20260901162645 65 221 2.6 7.0 0.00 0.00 0.00 71 1015.4
20260901162635 65 198 2.6 7.0 0.00 0.00 0.00 70 1015.3
20260901162423 65 239 3.5 7.0 0.00 0.00 0.00 70 1015.3
20260901162322 65 221 3.5 7.8 0.00 0.00 0.00 70 1015.3
20260901162222 65 221 3.5 7.8 0.00 0.00 0.00 70 1015.3
20260901162123 65 166 3.5 7.8 0.00 0.00 0.00 70 1015.4
20260901162025 65 172 3.5 8.7 0.00 0.00 0.00 70 1015.3
20260901161917 65 163 3.5 8.7 0.00 0.00 0.00 70 1015.3
20260901161817 65 163 2.6 8.7 0.00 0.00 0.00 71 1015.3
20260901161740 65 231 3.5 8.7 0.00 0.00 0.00 71 1015.4
20260901161716 65 150 2.6 8.7 0.00 0.00 0.00 71 1015.3
20260901161616 65 190 2.6 8.7 0.00 0.00 0.00 70 1015.3
20260901161523 65 231 3.5 8.7 0.00 0.00 0.00 71 1015.4
20260901161410 65 208 3.5 8.7 0.00 0.00 0.00 70 1015.4
20260901161311 65 225 3.5 8.7 0.00 0.00 0.00 70 1015.3
20260901161211 65 233 2.6 8.7 0.00 0.00 0.00 70 1015.4
20260901161111 65 136 2.6 7.8 0.00 0.00 0.00 71 1015.2
20260901161012 65 193 2.6 7.0 0.00 0.00 0.00 70 1015.3
20260901160904 65 232 2.6 7.0 0.00 0.00 0.00 70 1015.4
20260901160804 65 138 2.6 7.0 0.00 0.00 0.00 70 1015.4
20260901160729 65 162 2.6 7.0 0.00 0.00 0.00 70 1015.4
20260901160704 65 210 2.6 7.0 0.00 0.00 0.00 70 1015.3
20260901160621 65 236 2.6 7.0 0.00 0.00 0.00 70 1015.3
20260901160610 65 162 2.6 7.0 0.00 0.00 0.00 70 1015.4
20260901160401 65 177 2.6 6.1 0.00 0.00 0.00 70 1015.3
20260901160258 65 104 2.6 6.1 0.00 0.00 0.00 70 1015.3
20260901160158 65 213 2.6 6.1 0.00 0.00 0.00 71 1015.3
20260901160058 65 139 2.6 6.1 0.00 0.00 0.00 71 1015.3
20260901160003 65 127 2.6 6.1 0.00 0.00 0.00 71 1015.3
20260901155958 65 177 2.6 6.1 0.00 0.00 0.00 71 1015.3
20260901155856 64 115 2.6 8.7 0.00 0.00 0.00 71 1015.3
20260901155756 64 130 2.6 8.7 0.00 0.00 0.00 71 1015.2
20260901155655 64 133 2.6 8.7 0.00 0.00 0.00 71 1015.2
20260901155555 64 141 2.6 8.7 0.00 0.00 0.00 71 1015.2
20260901155459 64 205 2.6 8.7 0.00 0.00 0.00 71 1015.2
20260901155451 64 198 2.6 8.7 0.00 0.00 0.00 71 1015.2